SondeTracker

Meteorological Radiosondes Database

Operations

Sounding was ended - last measurement: 2022-12-07 11:42:56z

MAP
About Radiosonde

Number: U2750202

Launch Site: Eskmeals (GB)

Type: RS41-SG

AUX: NO

Frequency: 405.10 MHz

Max Speed: 102 km/h at 24638 m

Average Speed: 52.59 km/h

Max Altitude: 24931 m

Average Ascent Speed: 4.23 m/s

Average Descent Speed: 8.06 m/s

Status: UNKNOWN

Status Changes
Launch Site Type AUX Frequency Status Finder Landing Point Description Changes made by
APRS Statistics

Received Frames: 683

First Frame [UTC]: 2022-12-07 09:17:24z

Last Frame [UTC]: 2022-12-07 11:42:56z

Receivers: F5RZC-11, F5RZC-14, G3HRZ, G4VFL-14, GB3EI-15, GURGE2-15, M0DMP-12, M0NRD

Flight Time: 02:25:32 h

Distance From First Measurement: 117.12 km

Nearest City: Warrington (GB) [2.57 km]

Nearest Hunter: Mubok [20.03 km]

Ground Altitude: 12 m

Distance from QTH: 0.00 km

APRS Data
Receiver Number Date/Time [UTC] φ λ Course [°] Speed [km/h] Altitude [m] Description
G3HRZU27502022022-12-07 11:42:5653.3705-2.6127316320303Clb=-5.5m/s t=0.9C h=78.4% p=-1.0hPa 405.101 MHz Type=RS41-SG ser=U2750202 Radiosonde
G3HRZU27502022022-12-07 11:42:2653.371-2.6129816026346Clb=-4.6m/s t=0.8C h=76.5% p=-1.0hPa 405.101 MHz Type=RS41-SG ser=U2750202 Radiosonde
G3HRZU27502022022-12-07 11:41:3253.3731-2.6142116528484Clb=-4.7m/s t=0.2C h=73.8% p=-1.0hPa 405.101 MHz Type=RS41-SG ser=U2750202 Radiosonde
G3HRZU27502022022-12-07 11:40:3953.3752-2.6149217526630Clb=-4.5m/s t=-1.0C h=78.5% p=-1.0hPa 405.101 MHz Type=RS41-SG ser=U2750202 Radiosonde
G3HRZU27502022022-12-07 11:39:5553.3772-2.6150417726778Clb=-4.8m/s t=-1.8C h=75.6% p=-1.0hPa 405.101 MHz Type=RS41-SG ser=U2750202 Radiosonde
G3HRZU27502022022-12-07 11:39:0153.3793-2.6152317928927Clb=-4.6m/s t=-2.0C h=66.2% p=-1.0hPa 405.101 MHz Type=RS41-SG ser=U2750202 Radiosonde
G3HRZU27502022022-12-07 11:38:0553.3816-2.6155174301075Clb=-5.1m/s t=-3.2C h=68.1% p=-1.0hPa 405.101 MHz Type=RS41-SG ser=U2750202 Radiosonde
G3HRZU27502022022-12-07 11:37:0053.3842-2.61617167371228Clb=-4.8m/s t=-4.6C h=72.8% p=-1.0hPa 405.101 MHz Type=RS41-SG ser=U2750202 Radiosonde
G3HRZU27502022022-12-07 11:36:0153.3871-2.61742166391379Clb=-5.1m/s t=-5.9C h=76.1% p=-1.0hPa 405.101 MHz Type=RS41-SG ser=U2750202 Radiosonde
G3HRZU27502022022-12-07 11:35:3153.3899-2.61825173331527Clb=-4.5m/s t=-6.7C h=75.0% p=-1.0hPa 405.101 MHz Type=RS41-SG ser=U2750202 Radiosonde
G3HRZU27502022022-12-07 11:34:5953.3921-2.61858173201668Clb=-5.0m/s t=-7.4C h=72.7% p=-1.0hPa 405.101 MHz Type=RS41-SG ser=U2750202 Radiosonde
G3HRZU27502022022-12-07 11:34:4253.3935-2.61927151201797Clb=-3.5m/s t=-8.3C h=71.6% p=-1.0hPa 405.101 MHz Type=RS41-SG ser=U2750202 Radiosonde
G3HRZU27502022022-12-07 11:34:4053.3951-2.62067149221909Clb=-4.0m/s t=-8.0C h=52.9% p=-1.0hPa 405.101 MHz Type=RS41-SG ser=U2750202 Radiosonde
G3HRZU27502022022-12-07 11:34:1753.3965-2.6218162152028Clb=-4.0m/s t=-7.0C h=29.6% p=-1.0hPa 405.101 MHz Type=RS41-SG ser=U2750202 Radiosonde
G3HRZU27502022022-12-07 11:33:2653.3979-2.62187193202162Clb=-4.2m/s t=-7.7C h=29.1% p=-1.0hPa 405.101 MHz Type=RS41-SG ser=U2750202 Radiosonde
G3HRZU27502022022-12-07 11:32:3653.4-2.62119184302304Clb=-4.8m/s t=-7.4C h=31.8% p=-1.0hPa 405.101 MHz Type=RS41-SG ser=U2750202 Radiosonde
G3HRZU27502022022-12-07 11:31:5253.4026-2.62103178372465Clb=-5.4m/s t=-7.8C h=39.0% p=-1.0hPa 405.101 MHz Type=RS41-SG ser=U2750202 Radiosonde
G3HRZU27502022022-12-07 11:31:2153.4058-2.62173170432634Clb=-5.1m/s t=-8.2C h=42.3% p=-1.0hPa 405.101 MHz Type=RS41-SG ser=U2750202 Radiosonde
G3HRZU27502022022-12-07 11:30:5253.4089-2.62283166372799Clb=-5.2m/s t=-9.2C h=68.5% p=-1.0hPa 405.101 MHz Type=RS41-SG ser=U2750202 Radiosonde
G3HRZU27502022022-12-07 11:30:1953.4117-2.62409164392960Clb=-5.3m/s t=-10.2C h=68.0% p=-1.0hPa 405.101 MHz Type=RS41-SG ser=U2750202 Radiosonde
G3HRZU27502022022-12-07 11:29:5453.415-2.62553165443112Clb=-4.7m/s t=-11.1C h=79.1% p=-1.0hPa 405.101 MHz Type=RS41-SG ser=U2750202 Radiosonde
G3HRZU27502022022-12-07 11:29:4453.4181-2.62686164373267Clb=-5.4m/s t=-11.5C h=73.4% p=-1.0hPa 405.101 MHz Type=RS41-SG ser=U2750202 Radiosonde
G3HRZU27502022022-12-07 11:29:0453.421-2.62797168373423Clb=-5.0m/s t=-12.8C h=77.9% p=-1.0hPa 405.101 MHz Type=RS41-SG ser=U2750202 Radiosonde
G3HRZU27502022022-12-07 11:28:1853.4234-2.62894161303582Clb=-5.2m/s t=-13.8C h=82.1% p=-1.0hPa 405.101 MHz Type=RS41-SG ser=U2750202 Radiosonde
G3HRZU27502022022-12-07 11:27:4453.4256-2.63062150333747Clb=-5.4m/s t=-14.6C h=80.6% p=-1.0hPa 405.101 MHz Type=RS41-SG ser=U2750202 Radiosonde
G3HRZU27502022022-12-07 11:27:1353.4283-2.63331147433911Clb=-5.4m/s t=-14.8C h=59.6% p=-1.0hPa 405.101 MHz Type=RS41-SG ser=U2750202 Radiosonde
G3HRZU27502022022-12-07 11:26:4253.4314-2.63637149464077Clb=-5.6m/s t=-16.1C h=58.1% p=-1.0hPa 405.101 MHz Type=RS41-SG ser=U2750202 Radiosonde
G3HRZU27502022022-12-07 11:26:1153.4347-2.63983149504250Clb=-5.3m/s t=-17.4C h=47.5% p=-1.0hPa 405.101 MHz Type=RS41-SG ser=U2750202 Radiosonde
G3HRZU27502022022-12-07 11:25:4053.4383-2.64309151484414Clb=-5.4m/s t=-18.9C h=61.9% p=-1.0hPa 405.101 MHz Type=RS41-SG ser=U2750202 Radiosonde
G3HRZU27502022022-12-07 11:25:2053.4416-2.64584157484574Clb=-4.7m/s t=-19.6C h=29.3% p=-1.0hPa 405.101 MHz Type=RS41-SG ser=U2750202 Radiosonde
G3HRZU27502022022-12-07 11:24:4653.4451-2.64784160484728Clb=-5.2m/s t=-18.8C h=8.6% p=-1.0hPa 405.101 MHz Type=RS41-SG ser=U2750202 Radiosonde
G3HRZU27502022022-12-07 11:24:0753.4488-2.65016162484900Clb=-5.2m/s t=-20.1C h=12.8% p=-1.0hPa 405.101 MHz Type=RS41-SG ser=U2750202 Radiosonde
G3HRZU27502022022-12-07 11:23:3653.4523-2.65195163445068Clb=-5.4m/s t=-21.4C h=12.2% p=-1.0hPa 405.101 MHz Type=RS41-SG ser=U2750202 Radiosonde
G3HRZU27502022022-12-07 11:23:0553.4558-2.65348164465240Clb=-5.5m/s t=-22.9C h=14.3% p=-1.0hPa 405.101 MHz Type=RS41-SG ser=U2750202 Radiosonde
G3HRZU27502022022-12-07 11:22:3453.4594-2.65519163465408Clb=-5.8m/s t=-24.4C h=14.8% p=-1.0hPa 405.101 MHz Type=RS41-SG ser=U2750202 Radiosonde
G3HRZU27502022022-12-07 11:22:0353.463-2.65714161545585Clb=-6.0m/s t=-25.8C h=14.5% p=-1.0hPa 405.101 MHz Type=RS41-SG ser=U2750202 Radiosonde
G3HRZU27502022022-12-07 11:21:3153.4671-2.65925161525763Clb=-5.7m/s t=-26.7C h=24.6% p=-1.0hPa 405.101 MHz Type=RS41-SG ser=U2750202 Radiosonde
G3HRZU27502022022-12-07 11:21:0253.4709-2.66178156545944Clb=-6.1m/s t=-27.7C h=13.6% p=-1.0hPa 405.101 MHz Type=RS41-SG ser=U2750202 Radiosonde
G3HRZU27502022022-12-07 11:20:3153.4744-2.66478150446126Clb=-5.4m/s t=-28.7C h=11.3% p=-1.0hPa 405.101 MHz Type=RS41-SG ser=U2750202 Radiosonde
G3HRZU27502022022-12-07 11:19:5853.4774-2.66752150446315Clb=-6.1m/s t=-29.9C h=28.0% p=-1.0hPa 405.101 MHz Type=RS41-SG ser=U2750202 Radiosonde
G3HRZU27502022022-12-07 11:19:2753.4806-2.67066148466506Clb=-6.5m/s t=-31.3C h=25.9% p=-1.0hPa 405.101 MHz Type=RS41-SG ser=U2750202 Radiosonde
G3HRZU27502022022-12-07 11:18:5653.4838-2.67391148486700Clb=-6.0m/s t=-32.8C h=22.2% p=-1.0hPa 405.101 MHz Type=RS41-SG ser=U2750202 Radiosonde
G3HRZU27502022022-12-07 11:18:2553.4871-2.67724147506896Clb=-6.3m/s t=-34.5C h=19.8% p=-1.0hPa 405.101 MHz Type=RS41-SG ser=U2750202 Radiosonde
G3HRZU27502022022-12-07 11:17:5453.4905-2.68102145527094Clb=-6.2m/s t=-36.0C h=23.4% p=-1.0hPa 405.101 MHz Type=RS41-SG ser=U2750202 Radiosonde
G3HRZU27502022022-12-07 11:17:2353.4941-2.68487148567296Clb=-6.6m/s t=-37.3C h=25.2% p=-1.0hPa 405.101 MHz Type=RS41-SG ser=U2750202 Radiosonde
G3HRZU27502022022-12-07 11:16:5253.4976-2.68877146567508Clb=-8.0m/s t=-39.0C h=24.8% p=-1.0hPa 405.101 MHz Type=RS41-SG ser=U2750202 Radiosonde
G3HRZU27502022022-12-07 11:16:2153.5013-2.6926150567713Clb=-6.3m/s t=-39.9C h=26.0% p=-1.0hPa 405.101 MHz Type=RS41-SG ser=U2750202 Radiosonde
G3HRZU27502022022-12-07 11:15:5053.5052-2.69577155567895Clb=-5.8m/s t=-41.3C h=25.0% p=-1.0hPa 405.101 MHz Type=RS41-SG ser=U2750202 Radiosonde
G3HRZU27502022022-12-07 11:15:1953.509-2.69911152548076Clb=-5.7m/s t=-42.4C h=13.7% p=-1.0hPa 405.101 MHz Type=RS41-SG ser=U2750202 Radiosonde
G3HRZU27502022022-12-07 11:14:4853.5127-2.70277147568268Clb=-5.8m/s t=-43.2C h=14.0% p=-1.0hPa 405.101 MHz Type=RS41-SG ser=U2750202 Radiosonde
G3HRZU27502022022-12-07 11:14:1753.5165-2.70648150598453Clb=-6.3m/s t=-44.3C h=17.6% p=-1.0hPa 405.101 MHz Type=RS41-SG ser=U2750202 Radiosonde
G3HRZU27502022022-12-07 11:13:4653.5204-2.71004151548647Clb=-6.5m/s t=-45.7C h=18.5% p=-1.0hPa 405.101 MHz Type=RS41-SG ser=U2750202 Radiosonde
G3HRZU27502022022-12-07 11:13:1553.524-2.71328151548857Clb=-5.9m/s t=-47.4C h=20.4% p=-1.0hPa 405.101 MHz Type=RS41-SG ser=U2750202 Radiosonde
G3HRZU27502022022-12-07 11:12:4453.5278-2.71652153529063Clb=-7.3m/s t=-48.9C h=19.1% p=-1.0hPa 405.101 MHz Type=RS41-SG ser=U2750202 Radiosonde
G3HRZU27502022022-12-07 11:12:1353.5313-2.71968152529288Clb=-7.3m/s t=-50.6C h=18.5% p=-1.0hPa 405.101 MHz Type=RS41-SG ser=U2750202 Radiosonde
G3HRZU27502022022-12-07 11:11:4153.5349-2.72293152549514Clb=-7.4m/s t=-52.3C h=20.4% p=-1.0hPa 405.101 MHz Type=RS41-SG ser=U2750202 Radiosonde
G3HRZU27502022022-12-07 11:11:1053.5388-2.72621151579742Clb=-7.3m/s t=-53.7C h=20.1% p=-1.0hPa 405.101 MHz Type=RS41-SG ser=U2750202 Radiosonde
F5RZC-11U27502022022-12-07 11:11:0053.5422-2.72936152599939Clb=-7.7m/s t=-55.1C h=20.2% p=-1.0hPa 405.100 MHz Type=RS41-SG ser=U2750202 Radiosonde
G3HRZU27502022022-12-07 11:10:3953.5429-2.72996153619977Clb=-7.7m/s t=-55.4C h=20.3% p=-1.0hPa 405.101 MHz Type=RS41-SG ser=U2750202 Radiosonde
F5RZC-11U27502022022-12-07 11:10:2953.5447-2.731471535910077Clb=-7.8m/s t=-56.2C h=20.1% p=-1.0hPa 405.100 MHz Type=RS41-SG ser=U2750202 Radiosonde
G3HRZU27502022022-12-07 11:10:0853.5472-2.733321596110216Clb=-7.6m/s t=-56.9C h=18.3% p=-1.0hPa 405.101 MHz Type=RS41-SG ser=U2750202 Radiosonde
F5RZC-11U27502022022-12-07 11:09:5853.549-2.734331615710310Clb=-7.5m/s t=-57.4C h=18.7% p=-1.0hPa 405.100 MHz Type=RS41-SG ser=U2750202 Radiosonde
G3HRZU27502022022-12-07 11:09:3753.5516-2.735691635710455Clb=-7.7m/s t=-57.8C h=20.2% p=-1.0hPa 405.101 MHz Type=RS41-SG ser=U2750202 Radiosonde
F5RZC-11U27502022022-12-07 11:09:2753.5532-2.736491635910539Clb=-7.3m/s t=-58.4C h=22.0% p=-1.0hPa 405.100 MHz Type=RS41-SG ser=U2750202 Radiosonde
F5RZC-14U27502022022-12-07 11:09:2353.5536-2.736711626310561Clb=-7.2m/s t=-58.5C h=27.2% 405.10MHz Type=RS41-SG Details on http://radiosondy.info
F5RZC-14U27502022022-12-07 11:09:0853.5558-2.738051616310679Clb=-7.5m/s t=-59.4C h=28.9% 405.10MHz Type=RS41-SG batt=2.5V Details on http://radiosondy.info
G3HRZU27502022022-12-07 11:09:0653.5561-2.738231606310694Clb=-7.9m/s t=-59.4C h=23.3% p=-1.0hPa 405.101 MHz Type=RS41-SG ser=U2750202 Radiosonde
F5RZC-11U27502022022-12-07 11:08:5553.5577-2.739031676310781Clb=-8.0m/s t=-59.5C h=21.7% p=-1.0hPa 405.100 MHz Type=RS41-SG ser=U2750202 Radiosonde
F5RZC-14U27502022022-12-07 11:08:5353.558-2.739141686510797Clb=-7.7m/s t=-59.5C h=26.6% 405.10MHz Type=RS41-SG Details on http://radiosondy.info
F5RZC-14U27502022022-12-07 11:08:3853.5605-2.739641766310914Clb=-7.5m/s t=-60.2C h=25.4% 405.10MHz Type=RS41-SG Details on http://radiosondy.info
G3HRZU27502022022-12-07 11:08:3553.5609-2.739691766310938Clb=-7.9m/s t=-60.2C h=19.8% p=-1.0hPa 405.101 MHz Type=RS41-SG ser=U2750202 Radiosonde
F5RZC-11U27502022022-12-07 11:08:2453.5625-2.739881765211025Clb=-7.8m/s t=-60.5C h=19.1% p=-1.0hPa 405.100 MHz Type=RS41-SG ser=U2750202 Radiosonde
G3HRZU27502022022-12-07 11:08:0453.5648-2.74041694411181Clb=-7.4m/s t=-60.8C h=16.0% p=-1.0hPa 405.101 MHz Type=RS41-SG ser=U2750202 Radiosonde
F5RZC-11U27502022022-12-07 11:07:5353.566-2.740941614311268Clb=-8.1m/s t=-60.6C h=13.2% p=-1.0hPa 405.100 MHz Type=RS41-SG ser=U2750202 Radiosonde
G3HRZU27502022022-12-07 11:07:3353.5678-2.742581484311429Clb=-8.0m/s t=-61.2C h=10.7% p=-1.0hPa 405.101 MHz Type=RS41-SG ser=U2750202 Radiosonde
F5RZC-11U27502022022-12-07 11:07:2253.5688-2.743781394411519Clb=-7.8m/s t=-61.0C h=10.4% p=-1.0hPa 405.100 MHz Type=RS41-SG ser=U2750202 Radiosonde
G3HRZU27502022022-12-07 11:07:0253.5706-2.746771365211691Clb=-8.3m/s t=-61.1C h=8.2% p=-1.0hPa 405.101 MHz Type=RS41-SG ser=U2750202 Radiosonde
F5RZC-11U27502022022-12-07 11:06:5153.5716-2.748311375611774Clb=-8.2m/s t=-61.7C h=7.4% p=-1.0hPa 405.100 MHz Type=RS41-SG ser=U2750202 Radiosonde
G3HRZU27502022022-12-07 11:06:3153.5741-2.751551465911948Clb=-8.3m/s t=-62.5C h=5.7% p=-1.0hPa 405.101 MHz Type=RS41-SG ser=U2750202 Radiosonde
F5RZC-14U27502022022-12-07 11:06:2453.5749-2.752381486311999Clb=-8.0m/s t=-62.5C h=9.4% 405.10MHz Type=RS41-SG batt=2.5V Details on http://radiosondy.info
F5RZC-11U27502022022-12-07 11:06:2053.5754-2.752971456312031Clb=-8.0m/s t=-61.6C h=4.5% p=-1.0hPa 405.100 MHz Type=RS41-SG ser=U2750202 Radiosonde
F5RZC-14U27502022022-12-07 11:06:0953.5768-2.75461496512124Clb=-8.2m/s t=-61.2C h=7.9% 405.10MHz Type=RS41-SG Details on http://radiosondy.info
G3HRZU27502022022-12-07 11:06:0053.5782-2.755821546512208Clb=-8.2m/s t=-61.3C h=3.9% p=-1.0hPa 405.101 MHz Type=RS41-SG ser=U2750202 Radiosonde
F5RZC-14U27502022022-12-07 11:05:5453.579-2.756431567012250Clb=-8.2m/s t=-60.7C h=7.4% 405.10MHz Type=RS41-SG Details on http://radiosondy.info
F5RZC-11U27502022022-12-07 11:05:4953.5798-2.757051556912291Clb=-8.2m/s t=-60.2C h=3.5% p=-1.0hPa 405.100 MHz Type=RS41-SG ser=U2750202 Radiosonde
F5RZC-14U27502022022-12-07 11:05:3953.5814-2.758271576512375Clb=-8.1m/s t=-59.0C h=6.5% 405.10MHz Type=RS41-SG TxOff=8h16m batt=2.5V Details on http://radiosondy.info
G3HRZU27502022022-12-07 11:05:2953.5832-2.759421626712465Clb=-8.8m/s t=-58.0C h=2.9% p=-1.0hPa 405.101 MHz Type=RS41-SG ser=U2750202 Radiosonde
F5RZC-11U27502022022-12-07 11:05:1853.5847-2.760071676112551Clb=-8.9m/s t=-57.0C h=2.7% p=-1.0hPa 405.100 MHz Type=RS41-SG ser=U2750202 Radiosonde
G3HRZU27502022022-12-07 11:04:5853.5877-2.760941695212756Clb=-9.8m/s t=-57.9C h=2.8% p=-1.0hPa 405.101 MHz Type=RS41-SG ser=U2750202 Radiosonde
F5RZC-11U27502022022-12-07 11:04:4753.5888-2.761321664612842Clb=-9.9m/s t=-57.4C h=2.7% p=-1.0hPa 405.100 MHz Type=RS41-SG ser=U2750202 Radiosonde
G3HRZU27502022022-12-07 11:04:2753.5904-2.76251392613048Clb=-10.3m/s t=-57.1C h=2.6% p=-1.0hPa 405.101 MHz Type=RS41-SG ser=U2750202 Radiosonde
F5RZC-11U27502022022-12-07 11:04:1653.591-2.763331332813152Clb=-10.6m/s t=-57.6C h=2.6% p=-1.0hPa 405.100 MHz Type=RS41-SG ser=U2750202 Radiosonde
G3HRZU27502022022-12-07 11:03:5653.5923-2.765741334413370Clb=-10.4m/s t=-58.6C h=2.5% p=-1.0hPa 405.101 MHz Type=RS41-SG ser=U2750202 Radiosonde
F5RZC-11U27502022022-12-07 11:03:4553.593-2.767251244813472Clb=-10.4m/s t=-59.3C h=2.6% p=-1.0hPa 405.100 MHz Type=RS41-SG ser=U2750202 Radiosonde
G3HRZU27502022022-12-07 11:03:2553.595-2.771021426113693Clb=-10.6m/s t=-59.1C h=2.5% p=-1.0hPa 405.101 MHz Type=RS41-SG ser=U2750202 Radiosonde
F5RZC-14U27502022022-12-07 11:03:2453.595-2.771021435913693Clb=-10.5m/s t=-59.0C h=5.9% 405.10MHz Type=RS41-SG Details on http://radiosondy.info
M0NRDU27502022022-12-07 11:03:1653.5961-2.772261525913788Clb=-10.2m/s t=-59.0C h=2.5% p=-1.0hPa 405.101 MHz Type=RS41-SG Radiosonde
F5RZC-11U27502022022-12-07 11:03:1453.5963-2.772371545713798Clb=-10.8m/s t=-58.8C h=2.4% p=-1.0hPa 405.100 MHz Type=RS41-SG ser=U2750202 Radiosonde
F5RZC-14U27502022022-12-07 11:03:0953.5969-2.772821614813852Clb=-10.8m/s t=-58.3C h=5.6% 405.10MHz Type=RS41-SG Details on http://radiosondy.info
F5RZC-14U27502022022-12-07 11:02:5453.5986-2.773921564314018Clb=-10.9m/s t=-57.0C h=4.9% 405.10MHz Type=RS41-SG batt=2.5V Details on http://radiosondy.info
G3HRZU27502022022-12-07 11:02:5353.5987-2.773991554114028Clb=-10.5m/s t=-57.1C h=2.1% p=-1.0hPa 405.101 MHz Type=RS41-SG ser=U2750202 Radiosonde
M0NRDU27502022022-12-07 11:02:4553.5995-2.774741444114131Clb=-11.3m/s t=-56.7C h=2.0% p=-1.0hPa 405.101 MHz Type=RS41-SG Radiosonde
F5RZC-11U27502022022-12-07 11:02:4353.5997-2.774961394314153Clb=-11.8m/s t=-56.8C h=2.0% p=-1.0hPa 405.100 MHz Type=RS41-SG ser=U2750202 Radiosonde
F5RZC-14U27502022022-12-07 11:02:3953.5999-2.775341334314188Clb=-11.1m/s t=-57.0C h=5.0% 405.10MHz Type=RS41-SG Details on http://radiosondy.info
G3HRZU27502022022-12-07 11:02:2253.6012-2.777651433914386Clb=-11.7m/s t=-57.6C h=2.0% p=-1.0hPa 405.101 MHz Type=RS41-SG ser=U2750202 Radiosonde
M0NRDU27502022022-12-07 11:02:1453.6019-2.778491433714493Clb=-12.1m/s t=-57.4C h=2.0% p=-1.0hPa 405.101 MHz Type=RS41-SG Radiosonde
F5RZC-11U27502022022-12-07 11:02:1253.6021-2.778691413514517Clb=-11.9m/s t=-57.3C h=2.0% p=-1.0hPa 405.100 MHz Type=RS41-SG ser=U2750202 Radiosonde
G3HRZU27502022022-12-07 11:01:5153.6034-2.780611303314759Clb=-12.4m/s t=-57.6C h=2.0% p=-1.0hPa 405.101 MHz Type=RS41-SG ser=U2750202 Radiosonde
M0NRDU27502022022-12-07 11:01:4353.6039-2.781621243514870Clb=-12.5m/s t=-57.3C h=1.9% p=-1.0hPa 405.101 MHz Type=RS41-SG Radiosonde
F5RZC-11U27502022022-12-07 11:01:4153.604-2.781871223714895Clb=-12.3m/s t=-57.4C h=1.9% p=-1.0hPa 405.100 MHz Type=RS41-SG ser=U2750202 Radiosonde
G3HRZU27502022022-12-07 11:01:2053.6052-2.784781344315143Clb=-12.9m/s t=-58.3C h=2.0% p=-1.0hPa 405.101 MHz Type=RS41-SG ser=U2750202 Radiosonde
M0NRDU27502022022-12-07 11:01:1153.606-2.78611394815268Clb=-12.4m/s t=-58.3C h=2.0% p=-1.0hPa 405.101 MHz Type=RS41-SG Radiosonde
F5RZC-11U27502022022-12-07 11:01:1053.6061-2.786241394815281Clb=-12.3m/s t=-58.3C h=2.0% p=-1.0hPa 405.100 MHz Type=RS41-SG ser=U2750202 Radiosonde
G3HRZU27502022022-12-07 11:00:4953.6083-2.788821535415529Clb=-12.7m/s t=-57.9C h=1.9% p=-1.0hPa 405.101 MHz Type=RS41-SG ser=U2750202 Radiosonde
M0NRDU27502022022-12-07 11:00:4053.6095-2.78981535015653Clb=-12.1m/s t=-57.3C h=1.9% p=-1.0hPa 405.101 MHz Type=RS41-SG Radiosonde
F5RZC-11U27502022022-12-07 11:00:3953.6096-2.789891525015665Clb=-12.4m/s t=-57.4C h=1.9% p=-1.0hPa 405.100 MHz Type=RS41-SG ser=U2750202 Radiosonde
F5RZC-14U27502022022-12-07 11:00:2353.611-2.791321453115851Clb=-12.3m/s t=-57.3C h=4.7% 405.10MHz Type=RS41-SG Details on http://radiosondy.info
G3HRZU27502022022-12-07 11:00:1853.6113-2.791741423115915Clb=-13.0m/s t=-57.4C h=1.8% p=-1.0hPa 405.101 MHz Type=RS41-SG ser=U2750202 Radiosonde
M0NRDU27502022022-12-07 11:00:1053.6119-2.792571383016043Clb=-13.0m/s t=-58.1C h=1.8% p=-1.0hPa 405.101 MHz Type=RS41-SG Radiosonde
F5RZC-14U27502022022-12-07 11:00:0853.6119-2.792561393516043Clb=-12.9m/s t=-58.0C h=4.9% 405.10MHz Type=RS41-SG batt=2.6V Details on http://radiosondy.info
F5RZC-11U27502022022-12-07 11:00:0753.612-2.792661373116056Clb=-12.9m/s t=-58.1C h=1.8% p=-1.0hPa 405.100 MHz Type=RS41-SG ser=U2750202 Radiosonde
F5RZC-14U27502022022-12-07 10:59:5353.613-2.793921415016239Clb=-13.4m/s t=-59.3C h=5.4% 405.10MHz Type=RS41-SG Details on http://radiosondy.info
G3HRZU27502022022-12-07 10:59:4753.6134-2.79471334616317Clb=-13.2m/s t=-59.5C h=1.9% p=-1.0hPa 405.101 MHz Type=RS41-SG ser=U2750202 Radiosonde
M0NRDU27502022022-12-07 10:59:3853.6143-2.796171355616439Clb=-13.5m/s t=-59.1C h=1.9% p=-1.0hPa 405.101 MHz Type=RS41-SG Radiosonde
F5RZC-11U27502022022-12-07 10:59:3653.6145-2.79651355616467Clb=-13.6m/s t=-59.1C h=1.8% p=-1.0hPa 405.100 MHz Type=RS41-SG ser=U2750202 Radiosonde
G3HRZU27502022022-12-07 10:59:1653.6166-2.799181484416743Clb=-14.0m/s t=-59.9C h=2.0% p=-1.0hPa 405.101 MHz Type=RS41-SG ser=U2750202 Radiosonde
F5RZC-11U27502022022-12-07 10:59:0553.6176-2.800281474316898Clb=-14.1m/s t=-59.4C h=1.8% p=-1.0hPa 405.100 MHz Type=RS41-SG ser=U2750202 Radiosonde
G3HRZU27502022022-12-07 10:58:4553.6195-2.802411405417182Clb=-14.2m/s t=-59.0C h=1.8% p=-1.0hPa 405.101 MHz Type=RS41-SG ser=U2750202 Radiosonde
F5RZC-11U27502022022-12-07 10:58:3453.6206-2.803861394417341Clb=-14.3m/s t=-59.1C h=1.8% p=-1.0hPa 405.100 MHz Type=RS41-SG ser=U2750202 Radiosonde
G3HRZU27502022022-12-07 10:58:1453.6226-2.806161574317645Clb=-14.5m/s t=-58.9C h=1.7% p=-1.0hPa 405.101 MHz Type=RS41-SG ser=U2750202 Radiosonde
M0NRDU27502022022-12-07 10:58:0553.6233-2.806741503717761Clb=-14.4m/s t=-59.4C h=1.8% p=-1.0hPa 405.101 MHz Type=RS41-SG Radiosonde
F5RZC-11U27502022022-12-07 10:58:0353.6235-2.806891483317789Clb=-14.3m/s t=-59.2C h=1.7% p=-1.0hPa 405.100 MHz Type=RS41-SG ser=U2750202 Radiosonde
G3HRZU27502022022-12-07 10:57:4353.6243-2.808631203018086Clb=-15.0m/s t=-60.1C h=1.7% p=-1.0hPa 405.101 MHz Type=RS41-SG ser=U2750202 Radiosonde
M0NRDU27502022022-12-07 10:57:3453.6248-2.809791284118240Clb=-15.9m/s t=-61.0C h=1.8% p=-1.0hPa 405.101 MHz Type=RS41-SG Radiosonde
F5RZC-11U27502022022-12-07 10:57:3253.6249-2.809931274318256Clb=-16.1m/s t=-61.0C h=1.8% p=-1.0hPa 405.100 MHz Type=RS41-SG ser=U2750202 Radiosonde
F5RZC-14U27502022022-12-07 10:57:2353.6255-2.811431295418400Clb=-16.0m/s t=-61.0C h=5.3% 405.10MHz Type=RS41-SG TxOff=8h25m batt=2.6V Details on http://radiosondy.info
G3HRZU27502022022-12-07 10:57:1253.6267-2.813341385018596Clb=-16.4m/s t=-62.6C h=1.9% p=-1.0hPa 405.101 MHz Type=RS41-SG ser=U2750202 Radiosonde
F5RZC-14U27502022022-12-07 10:57:0853.627-2.813761405918646Clb=-16.6m/s t=-62.9C h=6.0% 405.10MHz Type=RS41-SG Details on http://radiosondy.info
F5RZC-11U27502022022-12-07 10:57:0153.6277-2.814781415718760Clb=-16.6m/s t=-62.8C h=2.1% p=-1.0hPa 405.100 MHz Type=RS41-SG ser=U2750202 Radiosonde
F5RZC-14U27502022022-12-07 10:56:5353.6288-2.815941515018894Clb=-16.9m/s t=-62.1C h=6.1% 405.10MHz Type=RS41-SG Details on http://radiosondy.info
G3HRZU27502022022-12-07 10:56:4153.6302-2.817551443919127Clb=-16.6m/s t=-60.9C h=1.8% p=-1.0hPa 405.101 MHz Type=RS41-SG ser=U2750202 Radiosonde
F5RZC-14U27502022022-12-07 10:56:3853.6303-2.817651465719144Clb=-16.6m/s t=-60.8C h=5.4% 405.10MHz Type=RS41-SG batt=2.5V Details on http://radiosondy.info
F5RZC-11U27502022022-12-07 10:56:3053.6309-2.818371413519277Clb=-16.5m/s t=-61.1C h=1.7% p=-1.0hPa 405.100 MHz Type=RS41-SG ser=U2750202 Radiosonde
G3HRZU27502022022-12-07 10:56:1053.6324-2.821291375619630Clb=-17.1m/s t=-61.8C h=1.8% p=-1.0hPa 405.101 MHz Type=RS41-SG ser=U2750202 Radiosonde
F5RZC-11U27502022022-12-07 10:55:5953.6336-2.822831445719802Clb=-17.2m/s t=-61.2C h=1.7% p=-1.0hPa 405.100 MHz Type=RS41-SG ser=U2750202 Radiosonde
G3HRZU27502022022-12-07 10:55:3953.6352-2.825691263520188Clb=-17.8m/s t=-61.4C h=1.8% p=-1.0hPa 405.101 MHz Type=RS41-SG ser=U2750202 Radiosonde
M0NRDU27502022022-12-07 10:55:3053.6357-2.826821254620328Clb=-17.5m/s t=-61.6C h=1.7% p=-1.0hPa 405.101 MHz Type=RS41-SG Radiosonde
F5RZC-11U27502022022-12-07 10:55:2853.6358-2.826991255020345Clb=-17.4m/s t=-61.4C h=1.7% p=-1.0hPa 405.100 MHz Type=RS41-SG ser=U2750202 Radiosonde
G3HRZU27502022022-12-07 10:55:0753.6378-2.830941326120706Clb=-17.8m/s t=-61.6C h=1.6% p=-1.0hPa 405.101 MHz Type=RS41-SG ser=U2750202 Radiosonde
F5RZC-11U27502022022-12-07 10:54:5753.639-2.832811406320878Clb=-16.3m/s t=-62.0C h=1.7% p=-1.0hPa 405.100 MHz Type=RS41-SG ser=U2750202 Radiosonde
G3HRZU27502022022-12-07 10:54:3653.6421-2.835531605921260Clb=-19.9m/s t=-62.8C h=1.7% p=-1.0hPa 405.101 MHz Type=RS41-SG ser=U2750202 Radiosonde
F5RZC-11U27502022022-12-07 10:54:2653.6437-2.836521606321474Clb=-20.0m/s t=-63.5C h=1.7% p=-1.0hPa 405.100 MHz Type=RS41-SG ser=U2750202 Radiosonde
F5RZC-14U27502022022-12-07 10:54:2353.644-2.836691626521515Clb=-20.2m/s t=-63.3C h=5.7% 405.10MHz Type=RS41-SG Details on http://radiosondy.info
F5RZC-14U27502022022-12-07 10:54:0853.6463-2.837641715721838Clb=-22.4m/s t=-64.8C h=6.2% 405.10MHz Type=RS41-SG Details on http://radiosondy.info
G3HRZU27502022022-12-07 10:54:0553.6467-2.837821645421907Clb=-23.4m/s t=-65.3C h=1.9% p=-1.0hPa 405.101 MHz Type=RS41-SG ser=U2750202 Radiosonde
M0NRDU27502022022-12-07 10:53:5753.6478-2.838691465922116Clb=-23.9m/s t=-65.8C h=1.9% p=-1.0hPa 405.101 MHz Type=RS41-SG Radiosonde
GB3EI-15U27502022022-12-07 10:53:5553.6479-2.838821445722139Clb=-23.5m/s t=-65.7C h=2.0% p=-1.0hPa 405.101 MHz Type=RS41-SG ser=U2750202 Radiosonde
F5RZC-14U27502022022-12-07 10:53:5353.6482-2.839091445922185Clb=-24.3m/s t=-65.7C h=6.7% 405.10MHz Type=RS41-SG batt=2.5V Details on http://radiosondy.info
F5RZC-14U27502022022-12-07 10:53:3853.6499-2.841271458122534Clb=-24.8m/s t=-66.0C h=7.4% 405.10MHz Type=RS41-SG Details on http://radiosondy.info
G3HRZU27502022022-12-07 10:53:3453.6505-2.841981427022627Clb=-23.6m/s t=-65.7C h=2.1% p=-1.0hPa 405.101 MHz Type=RS41-SG ser=U2750202 Radiosonde
M0NRDU27502022022-12-07 10:53:2653.652-2.843621496922862Clb=-25.2m/s t=-64.1C h=1.9% p=-1.0hPa 405.101 MHz Type=RS41-SG Radiosonde
GB3EI-15U27502022022-12-07 10:53:2453.652-2.843621496922862Clb=-25.2m/s t=-64.1C h=1.9% p=-1.0hPa 405.101 MHz Type=RS41-SG ser=U2750202 Radiosonde
G3HRZU27502022022-12-07 10:53:0353.6549-2.84731556723382Clb=-25.3m/s t=-62.9C h=1.6% p=-1.0hPa 405.101 MHz Type=RS41-SG ser=U2750202 Radiosonde
M0NRDU27502022022-12-07 10:52:5553.6564-2.848481425923622Clb=-24.7m/s t=-63.5C h=1.6% p=-1.0hPa 405.101 MHz Type=RS41-SG Radiosonde
GB3EI-15U27502022022-12-07 10:52:5353.6564-2.848481425923622Clb=-24.7m/s t=-63.5C h=1.6% p=-1.0hPa 405.101 MHz Type=RS41-SG ser=U2750202 Radiosonde
F5RZC-11U27502022022-12-07 10:52:5253.6565-2.848631405723646Clb=-24.7m/s t=-63.7C h=1.7% p=-1.0hPa 405.100 MHz Type=RS41-SG ser=U2750202 Radiosonde
G3HRZU27502022022-12-07 10:52:3253.6586-2.8521226724110Clb=-24.8m/s t=-65.9C h=1.9% p=-1.0hPa 405.101 MHz Type=RS41-SG ser=U2750202 Radiosonde
M0NRDU27502022022-12-07 10:52:2353.6599-2.854061449124346Clb=-27.1m/s t=-65.8C h=1.8% p=-1.0hPa 405.101 MHz Type=RS41-SG Radiosonde
GB3EI-15U27502022022-12-07 10:52:2253.6599-2.854061449124346Clb=-27.1m/s t=-65.8C h=1.8% p=-1.0hPa 405.101 MHz Type=RS41-SG ser=U2750202 Radiosonde
G3HRZU27502022022-12-07 10:52:0153.6637-2.858431397824931Clb=-16.8m/s t=-65.8C h=1.9% p=-1.0hPa 405.101 MHz Type=RS41-SG ser=U2750202 Radiosonde
M0NRDU27502022022-12-07 10:51:5253.6652-2.860151547224922Clb=5.0m/s t=-65.9C h=1.8% p=-1.0hPa 405.101 MHz Type=RS41-SG Radiosonde
GB3EI-15U27502022022-12-07 10:51:5153.6655-2.860411536924913Clb=3.4m/s t=-65.9C h=1.9% p=-1.0hPa 405.101 MHz Type=RS41-SG ser=U2750202 Radiosonde
F5RZC-11U27502022022-12-07 10:51:5053.6655-2.860411536924913Clb=3.4m/s t=-65.9C h=1.9% p=-1.0hPa 405.100 MHz Type=RS41-SG ser=U2750202 Radiosonde
G3HRZU27502022022-12-07 10:51:3053.6688-2.863561498324826Clb=5.1m/s t=-65.9C h=1.9% p=-1.0hPa 405.101 MHz Type=RS41-SG ser=U2750202 Radiosonde
F5RZC-14U27502022022-12-07 10:51:2353.6701-2.864891518724797Clb=3.9m/s t=-65.6C h=6.7% 405.10MHz Type=RS41-SG Details on http://radiosondy.info
M0NRDU27502022022-12-07 10:51:2153.6704-2.865231467624787Clb=4.5m/s t=-65.8C h=2.0% p=-1.0hPa 405.101 MHz Type=RS41-SG Radiosonde
GB3EI-15U27502022022-12-07 10:51:2053.6707-2.86561458024778Clb=5.3m/s t=-65.7C h=1.9% p=-1.0hPa 405.101 MHz Type=RS41-SG ser=U2750202 Radiosonde
F5RZC-11U27502022022-12-07 10:51:1953.6707-2.86561458024778Clb=5.3m/s t=-65.7C h=1.9% p=-1.0hPa 405.100 MHz Type=RS41-SG ser=U2750202 Radiosonde
F5RZC-14U27502022022-12-07 10:51:0853.6728-2.868021459324729Clb=4.3m/s t=-65.7C h=6.7% 405.10MHz Type=RS41-SG TxPastBurst=8h30m batt=2.6V Details on http://radiosondy.info
G3HRZU27502022022-12-07 10:50:5953.6744-2.8701714110024690Clb=4.3m/s t=-65.5C h=1.8% p=-1.0hPa 405.101 MHz Type=RS41-SG ser=U2750202 Radiosonde
F5RZC-14U27502022022-12-07 10:50:5353.6756-2.8715614310024661Clb=4.1m/s t=-65.6C h=6.6% 405.10MHz Type=RS41-SG Details on http://radiosondy.info
M0NRDU27502022022-12-07 10:50:5053.6763-2.8725114110024643Clb=4.7m/s t=-65.7C h=1.9% p=-1.0hPa 405.101 MHz Type=RS41-SG Radiosonde
GB3EI-15U27502022022-12-07 10:50:4953.6765-2.8727813810224638Clb=5.4m/s t=-65.8C h=1.9% p=-1.0hPa 405.101 MHz Type=RS41-SG ser=U2750202 Radiosonde
F5RZC-11U27502022022-12-07 10:50:4853.6765-2.8727813810224638Clb=5.4m/s t=-65.8C h=1.9% p=-1.0hPa 405.100 MHz Type=RS41-SG ser=U2750202 Radiosonde
F5RZC-14U27502022022-12-07 10:50:3853.6784-2.875521446924590Clb=5.6m/s t=-65.6C h=6.2% 405.10MHz Type=RS41-SG Details on http://radiosondy.info
G3HRZU27502022022-12-07 10:50:2853.6804-2.87814310024542Clb=5.0m/s t=-66.6C h=2.0% p=-1.0hPa 405.101 MHz Type=RS41-SG ser=U2750202 Radiosonde
GURGE2-15U27502022022-12-07 10:50:2453.6815-2.879581429824511Clb=4.8m/s t=-66.7C h=2.0% p=-1.0hPa 405.101 MHz Type=RS41-SG ser=U2750202 Radiosonde
M0NRDU27502022022-12-07 10:50:1953.6821-2.880331429824495Clb=4.6m/s t=-273.0C h=-1.0% p=-1.0hPa 405.101 MHz Type=RS41-SG Radiosonde
GB3EI-15U27502022022-12-07 10:50:1853.6825-2.880811459624485Clb=5.9m/s t=-66.6C h=2.0% p=-1.0hPa 405.101 MHz Type=RS41-SG ser=U2750202 Radiosonde
F5RZC-11U27502022022-12-07 10:50:1753.6825-2.880811459624485Clb=5.9m/s t=-66.6C h=2.0% p=-1.0hPa 405.100 MHz Type=RS41-SG ser=U2750202 Radiosonde
G3HRZU27502022022-12-07 10:49:5753.6859-2.885071368124375Clb=6.6m/s t=-66.4C h=1.9% p=-1.0hPa 405.101 MHz Type=RS41-SG ser=U2750202 Radiosonde
GURGE2-15U27502022022-12-07 10:49:5253.687-2.886741397024328Clb=5.5m/s t=-66.5C h=1.9% p=-1.0hPa 405.101 MHz Type=RS41-SG ser=U2750202 Radiosonde
M0NRDU27502022022-12-07 10:49:4853.6872-2.886941397224323Clb=4.5m/s t=-273.0C h=-1.0% p=-1.0hPa 405.101 MHz Type=RS41-SG Radiosonde
GB3EI-15U27502022022-12-07 10:49:4753.6875-2.887371337624313Clb=6.6m/s t=-66.8C h=1.9% p=-1.0hPa 405.101 MHz Type=RS41-SG ser=U2750202 Radiosonde
F5RZC-11U27502022022-12-07 10:49:4653.6875-2.887371337624313Clb=6.6m/s t=-66.8C h=1.9% p=-1.0hPa 405.100 MHz Type=RS41-SG ser=U2750202 Radiosonde
G3HRZU27502022022-12-07 10:49:2653.6897-2.89181357624200Clb=4.3m/s t=-66.6C h=1.9% p=-1.0hPa 405.101 MHz Type=RS41-SG ser=U2750202 Radiosonde
GURGE2-15U27502022022-12-07 10:49:2153.6903-2.893121315724167Clb=6.1m/s t=-66.5C h=2.0% p=-1.0hPa 405.101 MHz Type=RS41-SG ser=U2750202 Radiosonde
M0NRDU27502022022-12-07 10:49:1753.6906-2.893621375924150Clb=5.8m/s t=-273.0C h=-1.0% p=-1.0hPa 405.101 MHz Type=RS41-SG Radiosonde
GB3EI-15U27502022022-12-07 10:49:1553.6908-2.8941336724137Clb=5.4m/s t=-66.3C h=1.9% p=-1.0hPa 405.101 MHz Type=RS41-SG ser=U2750202 Radiosonde
G3HRZU27502022022-12-07 10:48:5553.6932-2.897871347224023Clb=5.0m/s t=-66.1C h=1.9% p=-1.0hPa 405.101 MHz Type=RS41-SG ser=U2750202 Radiosonde
M0NRDU27502022022-12-07 10:48:4653.6943-2.89951355923973Clb=6.3m/s t=-273.0C h=-1.0% p=-1.0hPa 405.101 MHz Type=RS41 Radiosonde
GB3EI-15U27502022022-12-07 10:48:4453.6945-2.899851386323961Clb=4.8m/s t=-65.6C h=1.9% p=-1.0hPa 405.101 MHz Type=RS41-SG ser=U2750202 Radiosonde
G3HRZU27502022022-12-07 10:48:2453.6966-2.902981425623847Clb=5.4m/s t=-64.9C h=1.8% p=-1.0hPa 405.101 MHz Type=RS41-SG ser=U2750202 Radiosonde
F5RZC-14U27502022022-12-07 10:48:2353.6967-2.903121455623842Clb=5.2m/s t=-64.9C h=6.4% 405.10MHz Type=RS41-SG batt=2.6V Details on http://radiosondy.info
GURGE2-15U27502022022-12-07 10:48:1953.6971-2.90371395423819Clb=5.3m/s t=-64.8C h=1.8% p=-1.0hPa 405.101 MHz Type=RS41-SG ser=U2750202 Radiosonde
GB3EI-15U27502022022-12-07 10:48:1353.6978-2.904591355723784Clb=5.7m/s t=-64.7C h=1.8% p=-1.0hPa 405.101 MHz Type=RS41-SG ser=U2750202 Radiosonde
F5RZC-14U27502022022-12-07 10:48:0853.6983-2.905361445923756Clb=6.3m/s t=-64.3C h=6.3% 405.10MHz Type=RS41-SG Details on http://radiosondy.info
F5RZC-14U27502022022-12-07 10:47:5353.7001-2.907471466323671Clb=5.3m/s t=-63.7C h=6.3% 405.10MHz Type=RS41-SG Details on http://radiosondy.info
GB3EI-15U27502022022-12-07 10:47:4253.7015-2.909051446123609Clb=6.6m/s t=-63.7C h=1.7% p=-1.0hPa 405.101 MHz Type=RS41-SG ser=U2750202 Radiosonde
F5RZC-14U27502022022-12-07 10:47:3853.7021-2.909621536723586Clb=5.6m/s t=-63.6C h=5.9% 405.10MHz Type=RS41-SG batt=2.6V Details on http://radiosondy.info
G3HRZU27502022022-12-07 10:47:2253.7045-2.911941516723492Clb=4.2m/s t=-63.8C h=1.7% p=-1.0hPa 405.101 MHz Type=RS41-SG ser=U2750202 Radiosonde
GB3EI-15U27502022022-12-07 10:47:1153.7059-2.913521507223439Clb=5.4m/s t=-63.2C h=1.7% p=-1.0hPa 405.101 MHz Type=RS41-SG ser=U2750202 Radiosonde
G3HRZU27502022022-12-07 10:46:5153.7089-2.917271327223332Clb=4.5m/s t=-63.9C h=1.7% p=-1.0hPa 405.101 MHz Type=RS41-SG ser=U2750202 Radiosonde
GURGE2-15U27502022022-12-07 10:46:4653.7102-2.919321467223285Clb=4.0m/s t=-63.8C h=1.7% p=-1.0hPa 405.101 MHz Type=RS41-SG ser=U2750202 Radiosonde
GB3EI-15U27502022022-12-07 10:46:4053.7102-2.919321467223285Clb=4.0m/s t=-63.8C h=1.7% p=-1.0hPa 405.101 MHz Type=RS41-SG ser=U2750202 Radiosonde
M0DMP-12U27502022022-12-07 10:46:3053.7118-2.921891327023230Clb=5.1m/s t=-273.0C h=-1.0% p=-1.0hPa 405.101 MHz Type=RS41 Radiosonde auto_rx v1.5.9
G3HRZU27502022022-12-07 10:46:2053.7131-2.924121317223184Clb=5.1m/s t=-64.3C h=1.8% p=-1.0hPa 405.101 MHz Type=RS41-SG ser=U2750202 Radiosonde
GURGE2-15U27502022022-12-07 10:46:1553.7138-2.925351417023157Clb=5.1m/s t=-64.4C h=1.8% p=-1.0hPa 405.101 MHz Type=RS41-SG ser=U2750202 Radiosonde
GB3EI-15U27502022022-12-07 10:46:0953.7142-2.925931396923144Clb=4.9m/s t=-64.5C h=1.8% p=-1.0hPa 405.101 MHz Type=RS41-SG ser=U2750202 Radiosonde
M0DMP-12U27502022022-12-07 10:46:0053.7161-2.928411496523080Clb=3.5m/s t=-273.0C h=-1.0% p=-1.0hPa 405.101 MHz Type=RS41 Radiosonde auto_rx v1.5.9
G3HRZU27502022022-12-07 10:45:4953.717-2.929231566923056Clb=4.9m/s t=-64.6C h=1.8% p=-1.0hPa 405.101 MHz Type=RS41-SG ser=U2750202 Radiosonde
GURGE2-15U27502022022-12-07 10:45:4453.7178-2.929791566923035Clb=3.8m/s t=-64.6C h=-1.0% p=-1.0hPa 405.101 MHz Type=RS41-SG ser=U2750202 Radiosonde
GB3EI-15U27502022022-12-07 10:45:3853.7186-2.930441467023014Clb=4.0m/s t=-64.8C h=1.9% p=-1.0hPa 405.101 MHz Type=RS41-SG ser=U2750202 Radiosonde
F5RZC-14U27502022022-12-07 10:45:2353.7207-2.932751497022951Clb=4.1m/s t=-64.6C h=6.3% 405.10MHz Type=RS41-SG Details on http://radiosondy.info
G3HRZU27502022022-12-07 10:45:1853.7217-2.933721506722925Clb=4.7m/s t=-64.9C h=1.8% p=-1.0hPa 405.101 MHz Type=RS41-SG ser=U2750202 Radiosonde
GURGE2-15U27502022022-12-07 10:45:1353.7227-2.934751486722895Clb=4.1m/s t=-65.3C h=-1.0% p=-1.0hPa 405.101 MHz Type=RS41-SG ser=U2750202 Radiosonde
F5RZC-14U27502022022-12-07 10:45:0853.723-2.935051497222887Clb=5.2m/s t=-65.4C h=6.4% 405.10MHz Type=RS41-SG Details on http://radiosondy.info
F5RZC-11U27502022022-12-07 10:45:0753.7233-2.935371467222878Clb=3.4m/s t=-65.6C h=1.9% p=-1.0hPa 405.100 MHz Type=RS41-SG ser=U2750202 Radiosonde
F5RZC-14U27502022022-12-07 10:44:5353.7252-2.937411457222822Clb=3.4m/s t=-66.1C h=6.8% 405.10MHz Type=RS41-SG TxPastBurst=8h30m batt=2.6V Details on http://radiosondy.info
G3HRZU27502022022-12-07 10:44:4753.7263-2.938441507022791Clb=3.8m/s t=-66.1C h=2.0% p=-1.0hPa 405.101 MHz Type=RS41-SG ser=U2750202 Radiosonde
GURGE2-15U27502022022-12-07 10:44:4253.7276-2.939651477022753Clb=5.3m/s t=-66.4C h=-1.0% p=-1.0hPa 405.101 MHz Type=RS41-SG ser=U2750202 Radiosonde
F5RZC-14U27502022022-12-07 10:44:3853.7276-2.939651486322753Clb=5.3m/s t=-66.4C h=6.9% 405.10MHz Type=RS41-SG Details on http://radiosondy.info
GB3EI-15U27502022022-12-07 10:44:3653.7279-2.939971476922743Clb=5.7m/s t=-66.3C h=2.0% p=-1.0hPa 405.101 MHz Type=RS41-SG ser=U2750202 Radiosonde
G3HRZU27502022022-12-07 10:44:1653.7309-2.943511447022639Clb=5.5m/s t=-66.6C h=2.2% p=-1.0hPa 405.101 MHz Type=RS41-SG ser=U2750202 Radiosonde
F5RZC-11U27502022022-12-07 10:44:0553.7325-2.945491475922581Clb=5.7m/s t=-66.7C h=2.1% p=-1.0hPa 405.100 MHz Type=RS41-SG ser=U2750202 Radiosonde
G3HRZU27502022022-12-07 10:43:4453.7351-2.94821446322471Clb=5.3m/s t=-66.4C h=2.1% p=-1.0hPa 405.101 MHz Type=RS41-SG ser=U2750202 Radiosonde
GB3EI-15U27502022022-12-07 10:43:3453.7366-2.949621454422409Clb=6.5m/s t=-66.0C h=1.9% p=-1.0hPa 405.101 MHz Type=RS41-SG ser=U2750202 Radiosonde
F5RZC-11U27502022022-12-07 10:43:3353.7366-2.949621454422409Clb=6.5m/s t=-66.0C h=1.9% p=-1.0hPa 405.100 MHz Type=RS41-SG ser=U2750202 Radiosonde
G3HRZU27502022022-12-07 10:43:1353.7388-2.951861485422297Clb=5.5m/s t=-65.3C h=1.9% p=-1.0hPa 405.101 MHz Type=RS41-SG ser=U2750202 Radiosonde
GB3EI-15U27502022022-12-07 10:43:0353.7401-2.953271554322236Clb=6.2m/s t=-65.1C h=1.9% p=-1.0hPa 405.101 MHz Type=RS41-SG ser=U2750202 Radiosonde
F5RZC-11U27502022022-12-07 10:43:0253.7401-2.953271554322236Clb=6.2m/s t=-65.1C h=1.9% p=-1.0hPa 405.100 MHz Type=RS41-SG ser=U2750202 Radiosonde
G3HRZU27502022022-12-07 10:42:4253.7426-2.955511496122123Clb=5.5m/s t=-65.1C h=1.9% p=-1.0hPa 405.101 MHz Type=RS41-SG ser=U2750202 Radiosonde
GB3EI-15U27502022022-12-07 10:42:3253.7439-2.956861525722062Clb=4.9m/s t=-64.9C h=1.8% p=-1.0hPa 405.101 MHz Type=RS41-SG ser=U2750202 Radiosonde
F5RZC-11U27502022022-12-07 10:42:3153.7439-2.956861525722062Clb=4.9m/s t=-64.9C h=1.8% p=-1.0hPa 405.100 MHz Type=RS41-SG ser=U2750202 Radiosonde
F5RZC-14U27502022022-12-07 10:42:2353.745-2.95781535922020Clb=6.0m/s t=-64.8C h=6.5% 405.10MHz Type=RS41-SG Details on http://radiosondy.info
G4VFL-14U27502022022-12-07 10:42:1553.746-2.958791485921976Clb=5.1m/s t=-64.6C h=6.4% 405.10MHz Type=RS41-SG Details on http://radiosondy.info
G3HRZU27502022022-12-07 10:42:1153.7465-2.959281566321956Clb=4.6m/s t=-64.6C h=1.8% p=-1.0hPa 405.101 MHz Type=RS41-SG ser=U2750202 Radiosonde
F5RZC-14U27502022022-12-07 10:42:0853.7469-2.959611525721940Clb=4.7m/s t=-64.6C h=6.3% 405.10MHz Type=RS41-SG batt=2.6V Details on http://radiosondy.info
GB3EI-15U27502022022-12-07 10:42:0053.7479-2.960321615721897Clb=5.0m/s t=-64.5C h=1.9% p=-1.0hPa 405.101 MHz Type=RS41-SG ser=U2750202 Radiosonde
F5RZC-14U27502022022-12-07 10:41:5353.7489-2.960971626121861Clb=4.6m/s t=-64.3C h=6.3% 405.10MHz Type=RS41-SG Details on http://radiosondy.info
G4VFL-14U27502022022-12-07 10:41:4553.75-2.96151646321821Clb=5.8m/s t=-64.1C h=6.4% 405.10MHz Type=RS41-SG Details on http://radiosondy.info
G3HRZU27502022022-12-07 10:41:4053.7508-2.961921626721796Clb=4.0m/s t=-63.9C h=1.8% p=-1.0hPa 405.101 MHz Type=RS41-SG ser=U2750202 Radiosonde
F5RZC-14U27502022022-12-07 10:41:3853.7511-2.962091627021785Clb=5.0m/s t=-63.9C h=6.3% 405.10MHz Type=RS41-SG Details on http://radiosondy.info
G4VFL-14U27502022022-12-07 10:41:3053.7522-2.962471666521746Clb=4.3m/s t=-63.6C h=5.9% 405.10MHz Type=RS41-SG Details on http://radiosondy.info
GB3EI-15U27502022022-12-07 10:41:2953.7524-2.962541636321741Clb=5.1m/s t=-273.0C h=-1.0% p=-1.0hPa 405.101 MHz Type=RS41-SG ser=U2750202 Radiosonde
G3HRZU27502022022-12-07 10:41:0953.7555-2.96391636721643Clb=5.6m/s t=-63.4C h=1.6% p=-1.0hPa 405.101 MHz Type=RS41-SG ser=U2750202 Radiosonde
GB3EI-15U27502022022-12-07 10:40:5853.7601-2.966541547021504Clb=3.9m/s t=-273.0C h=-1.0% p=-1.0hPa 405.101 MHz Type=RS41 ser=U2750202 Radiosonde
G3HRZU27502022022-12-07 10:40:3853.7605-2.966771597021494Clb=4.6m/s t=-62.8C h=1.6% p=-1.0hPa 405.101 MHz Type=RS41-SG ser=U2750202 Radiosonde
F5RZC-11U27502022022-12-07 10:40:2753.7622-2.967941537421442Clb=4.3m/s t=-63.1C h=1.7% p=-1.0hPa 405.100 MHz Type=RS41-SG ser=U2750202 Radiosonde
G4VFL-14U27502022022-12-07 10:40:1753.7639-2.969081606921394Clb=4.7m/s t=-62.9C h=5.8% 405.10MHz Type=RS41-SG batt=2.7V Details on http://radiosondy.info
G3HRZU27502022022-12-07 10:40:0753.7655-2.970191656921343Clb=5.7m/s t=-62.8C h=1.7% p=-1.0hPa 405.101 MHz Type=RS41-SG ser=U2750202 Radiosonde
GURGE2-15U27502022022-12-07 10:40:0253.7664-2.970591616121313Clb=5.8m/s t=-62.9C h=-1.0% p=-1.0hPa 405.101 MHz Type=RS41-SG ser=U2750202 Radiosonde
G4VFL-14U27502022022-12-07 10:40:0153.7664-2.970591626721313Clb=5.7m/s t=-62.8C h=5.8% 405.10MHz Type=RS41-SG Details on http://radiosondy.info
F5RZC-11U27502022022-12-07 10:39:5653.7672-2.971121556921287Clb=4.4m/s t=-62.8C h=1.7% p=-1.0hPa 405.100 MHz Type=RS41-SG ser=U2750202 Radiosonde
G4VFL-14U27502022022-12-07 10:39:4553.7689-2.972271567421230Clb=4.3m/s t=-62.5C h=5.8% 405.10MHz Type=RS41-SG Details on http://radiosondy.info
G3HRZU27502022022-12-07 10:39:3653.7705-2.973341586921185Clb=6.1m/s t=-62.5C h=1.7% p=-1.0hPa 405.101 MHz Type=RS41-SG ser=U2750202 Radiosonde
GURGE2-15U27502022022-12-07 10:39:3153.7713-2.973871557221157Clb=5.0m/s t=-62.4C h=-1.0% p=-1.0hPa 405.101 MHz Type=RS41-SG ser=U2750202 Radiosonde
G4VFL-14U27502022022-12-07 10:39:2953.7716-2.974141577421147Clb=5.7m/s t=-62.3C h=5.7% 405.10MHz Type=RS41-SG TxPastBurst=8h30m batt=2.6V Details on http://radiosondy.info
F5RZC-11U27502022022-12-07 10:39:2553.7723-2.974681537421126Clb=5.3m/s t=-62.2C h=1.7% p=-1.0hPa 405.100 MHz Type=RS41-SG ser=U2750202 Radiosonde
F5RZC-14U27502022022-12-07 10:39:2453.7725-2.974811557421121Clb=4.8m/s t=-62.2C h=5.7% 405.10MHz Type=RS41-SG batt=2.6V Details on http://radiosondy.info
G4VFL-14U27502022022-12-07 10:39:1453.7741-2.976131527221068Clb=5.9m/s t=-62.0C h=5.7% 405.10MHz Type=RS41-SG Details on http://radiosondy.info
F5RZC-14U27502022022-12-07 10:39:0953.775-2.976891556921044Clb=4.6m/s t=-62.1C h=5.6% 405.10MHz Type=RS41-SG Details on http://radiosondy.info
G3HRZU27502022022-12-07 10:39:0553.7756-2.977431506521023Clb=4.4m/s t=-62.2C h=1.6% p=-1.0hPa 405.101 MHz Type=RS41-SG ser=U2750202 Radiosonde
GURGE2-15U27502022022-12-07 10:39:0053.7764-2.978081506920999Clb=5.4m/s t=-273.0C h=-1.0% p=-1.0hPa 405.101 MHz Type=RS41-SG ser=U2750202 Radiosonde
G4VFL-14U27502022022-12-07 10:38:5953.7765-2.978231486920994Clb=4.8m/s t=-62.3C h=5.8% 405.10MHz Type=RS41-SG Details on http://radiosondy.info
F5RZC-14U27502022022-12-07 10:38:5453.7772-2.979031476920970Clb=4.5m/s t=-62.5C h=6.1% 405.10MHz Type=RS41-SG Details on http://radiosondy.info
G4VFL-14U27502022022-12-07 10:38:4453.7786-2.980671466720918Clb=5.8m/s t=-62.2C h=5.6% 405.10MHz Type=RS41-SG batt=2.6V Details on http://radiosondy.info
F5RZC-14U27502022022-12-07 10:38:3953.7793-2.981541404820892Clb=4.4m/s t=-62.0C h=5.7% 405.10MHz Type=RS41-SG TxPastBurst=8h30m batt=2.6V Details on http://radiosondy.info
G3HRZU27502022022-12-07 10:38:3453.7799-2.982431386320866Clb=5.4m/s t=-62.0C h=1.6% p=-1.0hPa 405.101 MHz Type=RS41-SG ser=U2750202 Radiosonde
G4VFL-14U27502022022-12-07 10:38:2853.7807-2.983491396520836Clb=5.6m/s t=-62.0C h=5.9% 405.10MHz Type=RS41-SG Details on http://radiosondy.info
GB3EI-15U27502022022-12-07 10:38:2353.7831-2.987331356920733Clb=4.6m/s t=-273.0C h=-1.0% p=-1.0hPa 405.101 MHz Type=RS41 ser=U2750202 Radiosonde
G3HRZU27502022022-12-07 10:38:0353.7836-2.988061456320714Clb=4.3m/s t=-61.8C h=1.7% p=-1.0hPa 405.101 MHz Type=RS41-SG ser=U2750202 Radiosonde
GURGE2-15U27502022022-12-07 10:37:5853.7848-2.989491365420672Clb=4.5m/s t=-273.0C h=-1.0% p=-1.0hPa 405.101 MHz Type=RS41 ser=U2750202 Radiosonde
GB3EI-15U27502022022-12-07 10:37:5253.785-2.989831356120661Clb=5.0m/s t=-273.0C h=-1.0% p=-1.0hPa 405.101 MHz Type=RS41 ser=U2750202 Radiosonde
G3HRZU27502022022-12-07 10:37:3253.7872-2.993491366720562Clb=6.1m/s t=-61.5C h=1.7% p=-1.0hPa 405.101 MHz Type=RS41-SG ser=U2750202 Radiosonde
F5RZC-11U27502022022-12-07 10:37:2153.7885-2.9961246120499Clb=6.1m/s t=-61.9C h=1.6% p=-1.0hPa 405.100 MHz Type=RS41-SG ser=U2750202 Radiosonde
G4VFL-14U27502022022-12-07 10:37:1453.789-2.997121375420467Clb=5.3m/s t=-62.2C h=5.5% 405.10MHz Type=RS41-SG Details on http://radiosondy.info
G3HRZU27502022022-12-07 10:37:0153.7902-2.999181415220398Clb=4.7m/s t=-63.0C h=1.8% p=-1.0hPa 405.101 MHz Type=RS41-SG ser=U2750202 Radiosonde
G4VFL-14U27502022022-12-07 10:36:5953.7904-2.999451404120387Clb=5.4m/s t=-63.1C h=5.9% 405.10MHz Type=RS41-SG batt=2.5V Details on http://radiosondy.info
F5RZC-11U27502022022-12-07 10:36:5053.791-3.000871363520337Clb=4.1m/s t=-63.2C h=2.0% p=-1.0hPa 405.100 MHz Type=RS41-SG ser=U2750202 Radiosonde
G4VFL-14U27502022022-12-07 10:36:4453.7914-3.001291473920310Clb=5.3m/s t=-63.1C h=6.2% 405.10MHz Type=RS41-SG Details on http://radiosondy.info
G3HRZU27502022022-12-07 10:36:3053.7925-3.002791474320238Clb=4.5m/s t=-62.5C h=1.8% p=-1.0hPa 405.101 MHz Type=RS41-SG ser=U2750202 Radiosonde
G4VFL-14U27502022022-12-07 10:36:2953.7926-3.002881473920234Clb=5.4m/s t=-62.5C h=5.9% 405.10MHz Type=RS41-SG Details on http://radiosondy.info
F5RZC-14U27502022022-12-07 10:36:2453.7929-3.003441294120208Clb=4.3m/s t=-62.4C h=6.0% 405.10MHz Type=RS41-SG Details on http://radiosondy.info
F5RZC-11U27502022022-12-07 10:36:1953.7933-3.00411373920177Clb=5.2m/s t=-62.3C h=1.8% p=-1.0hPa 405.100 MHz Type=RS41-SG ser=U2750202 Radiosonde
G4VFL-14U27502022022-12-07 10:36:1353.7937-3.004691364320152Clb=5.7m/s t=-62.1C h=5.6% 405.10MHz Type=RS41-SG TxPastBurst=8h30m batt=2.7V Details on http://radiosondy.info
F5RZC-14U27502022022-12-07 10:36:0953.794-3.005241344420131Clb=4.6m/s t=-62.4C h=5.9% 405.10MHz Type=RS41-SG Details on http://radiosondy.info
G4VFL-14U27502022022-12-07 10:35:5853.7948-3.00661445220075Clb=5.8m/s t=-62.5C h=5.8% 405.10MHz Type=RS41-SG Details on http://radiosondy.info
F5RZC-14U27502022022-12-07 10:35:5453.7952-3.007121405420054Clb=3.9m/s t=-62.3C h=5.8% 405.10MHz Type=RS41-SG batt=2.6V Details on http://radiosondy.info
F5RZC-11U27502022022-12-07 10:35:4753.796-3.008011445720017Clb=6.0m/s t=-62.3C h=1.8% p=-1.0hPa 405.100 MHz Type=RS41-SG ser=U2750202 Radiosonde
G4VFL-14U27502022022-12-07 10:35:4353.7964-3.008571425719997Clb=5.6m/s t=-62.4C h=5.8% 405.10MHz Type=RS41-SG Details on http://radiosondy.info
F5RZC-14U27502022022-12-07 10:35:3953.7969-3.009141473319976Clb=4.7m/s t=-62.6C h=5.7% 405.10MHz Type=RS41-SG Details on http://radiosondy.info
G4VFL-14U27502022022-12-07 10:35:2753.7983-3.010841414119915Clb=4.6m/s t=-62.8C h=5.9% 405.10MHz Type=RS41-SG batt=2.6V Details on http://radiosondy.info
F5RZC-11U27502022022-12-07 10:35:1653.7995-3.012611405219858Clb=5.6m/s t=-62.8C h=1.8% p=-1.0hPa 405.100 MHz Type=RS41-SG ser=U2750202 Radiosonde
G3HRZU27502022022-12-07 10:34:5753.8015-3.01571324819757Clb=3.9m/s t=-63.0C h=1.8% p=-1.0hPa 405.101 MHz Type=RS41-SG ser=U2750202 Radiosonde
F5RZC-11U27502022022-12-07 10:34:4553.8025-3.017361274319706Clb=5.3m/s t=-63.1C h=1.8% p=-1.0hPa 405.100 MHz Type=RS41-SG ser=U2750202 Radiosonde
G3HRZU27502022022-12-07 10:34:2653.8036-3.019981313519612Clb=4.8m/s t=-62.6C h=1.8% p=-1.0hPa 405.101 MHz Type=RS41-SG ser=U2750202 Radiosonde
F5RZC-11U27502022022-12-07 10:34:1453.8042-3.021121233519561Clb=3.5m/s t=-62.2C h=1.8% p=-1.0hPa 405.100 MHz Type=RS41-SG ser=U2750202 Radiosonde
G4VFL-14U27502022022-12-07 10:34:0353.8047-3.022141312619510Clb=4.7m/s t=-61.9C h=5.6% 405.10MHz Type=RS41-SG Details on http://radiosondy.info
G3HRZU27502022022-12-07 10:33:5553.8051-3.022891392019467Clb=5.6m/s t=-61.8C h=1.8% p=-1.0hPa 405.101 MHz Type=RS41-SG ser=U2750202 Radiosonde
G4VFL-14U27502022022-12-07 10:33:4753.8054-3.023361342819433Clb=4.2m/s t=-61.3C h=5.5% 405.10MHz Type=RS41-SG Details on http://radiosondy.info
F5RZC-11U27502022022-12-07 10:33:4353.8056-3.02371422819414Clb=5.3m/s t=-61.2C h=1.7% p=-1.0hPa 405.100 MHz Type=RS41-SG ser=U2750202 Radiosonde
G4VFL-14U27502022022-12-07 10:33:3153.8063-3.024341332619356Clb=5.5m/s t=-61.3C h=5.7% 405.10MHz Type=RS41-SG batt=2.6V Details on http://radiosondy.info
G3HRZU27502022022-12-07 10:33:2353.8068-3.024741742819319Clb=5.9m/s t=-61.2C h=1.7% p=-1.0hPa 405.101 MHz Type=RS41-SG ser=U2750202 Radiosonde
G4VFL-14U27502022022-12-07 10:33:1553.8072-3.024971352419281Clb=5.0m/s t=-60.8C h=5.5% 405.10MHz Type=RS41-SG Details on http://radiosondy.info
F5RZC-11U27502022022-12-07 10:33:1253.8074-3.02521422619267Clb=3.8m/s t=-60.7C h=1.6% p=-1.0hPa 405.100 MHz Type=RS41-SG ser=U2750202 Radiosonde
F5RZC-14U27502022022-12-07 10:33:0853.8076-3.025391602619250Clb=4.3m/s t=-60.6C h=5.3% 405.10MHz Type=RS41-SG batt=2.6V Details on http://radiosondy.info
G4VFL-14U27502022022-12-07 10:33:0053.808-3.025741462819211Clb=4.5m/s t=-60.5C h=5.5% 405.10MHz Type=RS41-SG Details on http://radiosondy.info
F5RZC-14U27502022022-12-07 10:32:5353.8084-3.02621483119178Clb=4.3m/s t=-60.6C h=5.4% 405.10MHz Type=RS41-SG Details on http://radiosondy.info
G3HRZU27502022022-12-07 10:32:5253.8084-3.026271492619173Clb=5.2m/s t=-60.7C h=1.7% p=-1.0hPa 405.101 MHz Type=RS41-SG ser=U2750202 Radiosonde
G4VFL-14U27502022022-12-07 10:32:4453.809-3.026721503519135Clb=4.3m/s t=-60.6C h=5.4% 405.10MHz Type=RS41-SG TxPastBurst=8h30m batt=2.7V Details on http://radiosondy.info
F5RZC-11U27502022022-12-07 10:32:4153.8092-3.026951513519122Clb=3.9m/s t=-60.7C h=1.6% p=-1.0hPa 405.100 MHz Type=RS41-SG ser=U2750202 Radiosonde
F5RZC-14U27502022022-12-07 10:32:3853.8094-3.027121585019108Clb=4.1m/s t=-60.6C h=5.5% 405.10MHz Type=RS41-SG Details on http://radiosondy.info
G4VFL-14U27502022022-12-07 10:32:2853.8102-3.027761454419062Clb=5.2m/s t=-60.2C h=5.3% 405.10MHz Type=RS41-SG Details on http://radiosondy.info
G3HRZU27502022022-12-07 10:32:2153.8108-3.028331513519028Clb=4.7m/s t=-60.2C h=1.6% p=-1.0hPa 405.101 MHz Type=RS41-SG ser=U2750202 Radiosonde
F5RZC-11U27502022022-12-07 10:32:1053.8117-3.029341493518976Clb=4.5m/s t=-60.3C h=1.6% p=-1.0hPa 405.100 MHz Type=RS41-SG ser=U2750202 Radiosonde
G3HRZU27502022022-12-07 10:31:5053.8138-3.031281506718880Clb=5.7m/s t=-61.4C h=1.8% p=-1.0hPa 405.101 MHz Type=RS41-SG ser=U2750202 Radiosonde
F5RZC-11U27502022022-12-07 10:31:3953.8152-3.032651495418829Clb=5.0m/s t=-61.2C h=1.8% p=-1.0hPa 405.100 MHz Type=RS41-SG ser=U2750202 Radiosonde
G3HRZU27502022022-12-07 10:31:1953.8178-3.035531446718731Clb=4.4m/s t=-61.0C h=1.7% p=-1.0hPa 405.101 MHz Type=RS41-SG ser=U2750202 Radiosonde
G4VFL-14U27502022022-12-07 10:31:1553.8183-3.036271436118712Clb=5.5m/s t=-61.1C h=5.4% 405.10MHz Type=RS41-SG Details on http://radiosondy.info
F5RZC-11U27502022022-12-07 10:31:0853.8192-3.037321475418679Clb=4.8m/s t=-61.8C h=1.8% p=-1.0hPa 405.100 MHz Type=RS41-SG ser=U2750202 Radiosonde
G4VFL-14U27502022022-12-07 10:31:0053.8202-3.03851465618641Clb=4.3m/s t=-62.0C h=5.8% 405.10MHz Type=RS41-SG batt=2.6V Details on http://radiosondy.info
G3HRZU27502022022-12-07 10:30:4853.8214-3.040221405618582Clb=4.7m/s t=-61.8C h=1.9% p=-1.0hPa 405.101 MHz Type=RS41-SG ser=U2750202 Radiosonde
G4VFL-14U27502022022-12-07 10:30:4553.8217-3.040681405418568Clb=5.9m/s t=-61.7C h=5.7% 405.10MHz Type=RS41-SG Details on http://radiosondy.info
F5RZC-11U27502022022-12-07 10:30:3753.8225-3.041831435218527Clb=5.4m/s t=-61.9C h=1.9% p=-1.0hPa 405.100 MHz Type=RS41-SG ser=U2750202 Radiosonde
G4VFL-14U27502022022-12-07 10:30:3053.8234-3.042771455918493Clb=3.9m/s t=-61.5C h=5.8% 405.10MHz Type=RS41-SG Details on http://radiosondy.info
F5RZC-14U27502022022-12-07 10:30:2353.8242-3.043671466118458Clb=5.1m/s t=-61.2C h=5.7% 405.10MHz Type=RS41-SG TxPastBurst=8h30m batt=2.6V Details on http://radiosondy.info
G3HRZU27502022022-12-07 10:30:1753.8249-3.044691416118429Clb=4.9m/s t=-61.0C h=1.8% p=-1.0hPa 405.101 MHz Type=RS41-SG ser=U2750202 Radiosonde
G4VFL-14U27502022022-12-07 10:30:1353.8254-3.045311425918409Clb=4.6m/s t=-60.7C h=5.6% 405.10MHz Type=RS41-SG batt=2.7V Details on http://radiosondy.info
F5RZC-14U27502022022-12-07 10:30:0853.826-3.046051405918386Clb=4.8m/s t=-60.6C h=5.5% 405.10MHz Type=RS41-SG Details on http://radiosondy.info
F5RZC-11U27502022022-12-07 10:30:0653.8262-3.04641386318376Clb=5.3m/s t=-60.6C h=1.8% p=-1.0hPa 405.100 MHz Type=RS41-SG ser=U2750202 Radiosonde
G4VFL-14U27502022022-12-07 10:29:5753.8272-3.047871405718335Clb=4.8m/s t=-60.4C h=5.4% 405.10MHz Type=RS41-SG Details on http://radiosondy.info
F5RZC-14U27502022022-12-07 10:29:5353.8276-3.048571385618316Clb=5.6m/s t=-60.4C h=5.2% 405.10MHz Type=RS41-SG Details on http://radiosondy.info
G3HRZU27502022022-12-07 10:29:4653.8283-3.049771345418283Clb=4.5m/s t=-273.0C h=-1.0% p=-1.0hPa 405.101 MHz Type=RS41-SG ser=U2750202 Radiosonde
G4VFL-14U27502022022-12-07 10:29:4253.8287-3.05041365218265Clb=4.0m/s t=-60.9C h=5.5% 405.10MHz Type=RS41-SG Details on http://radiosondy.info
F5RZC-14U27502022022-12-07 10:29:3853.8291-3.050971414818247Clb=4.9m/s t=-60.9C h=5.5% 405.10MHz Type=RS41-SG batt=2.7V Details on http://radiosondy.info
F5RZC-11U27502022022-12-07 10:29:3553.8295-3.051571385018228Clb=4.9m/s t=-61.0C h=1.8% p=-1.0hPa 405.100 MHz Type=RS41-SG ser=U2750202 Radiosonde
G4VFL-14U27502022022-12-07 10:29:2753.8301-3.05251414418196Clb=4.8m/s t=-61.2C h=5.5% 405.10MHz Type=RS41-SG TxPastBurst=8h30m batt=2.7V Details on http://radiosondy.info
F5RZC-11U27502022022-12-07 10:29:0453.8321-3.054941503918084Clb=5.6m/s t=-61.3C h=1.9% p=-1.0hPa 405.100 MHz Type=RS41-SG ser=U2750202 Radiosonde
F5RZC-11U27502022022-12-07 10:28:3353.835-3.057081604817938Clb=4.3m/s t=-61.0C h=1.8% p=-1.0hPa 405.100 MHz Type=RS41-SG ser=U2750202 Radiosonde
G4VFL-14U27502022022-12-07 10:28:1753.8364-3.057761614317865Clb=5.6m/s t=-60.7C h=5.7% 405.10MHz Type=RS41-SG Details on http://radiosondy.info
F5RZC-11U27502022022-12-07 10:28:0253.838-3.058721584817787Clb=5.2m/s t=-60.2C h=1.8% p=-1.0hPa 405.100 MHz Type=RS41-SG ser=U2750202 Radiosonde
G4VFL-14U27502022022-12-07 10:28:0153.838-3.058721594617787Clb=5.2m/s t=-60.2C h=5.5% 405.10MHz Type=RS41-SG Details on http://radiosondy.info
G4VFL-14U27502022022-12-07 10:27:4553.8396-3.060051534417709Clb=4.7m/s t=-59.5C h=5.1% 405.10MHz Type=RS41-SG batt=2.6V Details on http://radiosondy.info
F5RZC-11U27502022022-12-07 10:27:3153.8411-3.06141573917634Clb=3.9m/s t=-59.7C h=1.7% p=-1.0hPa 405.100 MHz Type=RS41-SG ser=U2750202 Radiosonde
G4VFL-14U27502022022-12-07 10:27:2953.8412-3.061471545017630Clb=5.1m/s t=-59.6C h=5.2% 405.10MHz Type=RS41-SG Details on http://radiosondy.info
F5RZC-14U27502022022-12-07 10:27:2353.8418-3.062171444617599Clb=5.6m/s t=-59.5C h=5.2% 405.10MHz Type=RS41-SG Details on http://radiosondy.info
G4VFL-14U27502022022-12-07 10:27:1453.8427-3.063221454117552Clb=5.5m/s t=-59.4C h=5.1% 405.10MHz Type=RS41-SG Details on http://radiosondy.info
F5RZC-14U27502022022-12-07 10:27:0853.8432-3.063891413917522Clb=5.7m/s t=-59.7C h=5.3% 405.10MHz Type=RS41-SG Details on http://radiosondy.info
F5RZC-11U27502022022-12-07 10:27:0053.8439-3.064821373017477Clb=5.1m/s t=-59.7C h=1.7% p=-1.0hPa 405.100 MHz Type=RS41-SG ser=U2750202 Radiosonde
G4VFL-14U27502022022-12-07 10:26:5853.8439-3.064911363917472Clb=3.8m/s t=-59.6C h=5.2% 405.10MHz Type=RS41-SG batt=2.7V Details on http://radiosondy.info
F5RZC-14U27502022022-12-07 10:26:5353.8443-3.065441364117448Clb=4.2m/s t=-59.4C h=5.2% 405.10MHz Type=RS41-SG batt=2.6V Details on http://radiosondy.info
G4VFL-14U27502022022-12-07 10:26:4253.8451-3.066711354117396Clb=5.2m/s t=-59.2C h=5.1% 405.10MHz Type=RS41-SG Details on http://radiosondy.info
F5RZC-14U27502022022-12-07 10:26:3853.8454-3.067171403917376Clb=4.2m/s t=-59.1C h=5.2% 405.10MHz Type=RS41-SG Details on http://radiosondy.info
F5RZC-11U27502022022-12-07 10:26:2953.8461-3.068351394417327Clb=4.6m/s t=-58.8C h=1.7% p=-1.0hPa 405.100 MHz Type=RS41-SG ser=U2750202 Radiosonde
G4VFL-14U27502022022-12-07 10:26:2753.8462-3.068471424317322Clb=4.1m/s t=-58.7C h=5.0% 405.10MHz Type=RS41-SG Details on http://radiosondy.info
F5RZC-11U27502022022-12-07 10:25:5853.849-3.072321345017183Clb=4.1m/s t=-58.5C h=1.7% p=-1.0hPa 405.100 MHz Type=RS41-SG ser=U2750202 Radiosonde
F5RZC-11U27502022022-12-07 10:25:2653.8521-3.07641434417054Clb=3.3m/s t=-58.3C h=1.7% p=-1.0hPa 405.100 MHz Type=RS41-SG ser=U2750202 Radiosonde
G4VFL-14U27502022022-12-07 10:25:1753.853-3.077181574617021Clb=2.5m/s t=-58.3C h=5.0% 405.10MHz Type=RS41-SG TxPastBurst=8h30m batt=2.7V Details on http://radiosondy.info
G4VFL-14U27502022022-12-07 10:25:0153.8546-3.078591474816968Clb=3.2m/s t=-59.0C h=5.0% 405.10MHz Type=RS41-SG Details on http://radiosondy.info
F5RZC-11U27502022022-12-07 10:24:5553.8552-3.079271504616949Clb=2.6m/s t=-59.2C h=1.8% p=-1.0hPa 405.100 MHz Type=RS41-SG ser=U2750202 Radiosonde
G4VFL-14U27502022022-12-07 10:24:4653.8562-3.08021484416921Clb=3.0m/s t=-59.5C h=5.2% 405.10MHz Type=RS41-SG Details on http://radiosondy.info
G4VFL-14U27502022022-12-07 10:24:3053.8576-3.081831463916867Clb=3.2m/s t=-59.4C h=5.3% 405.10MHz Type=RS41-SG batt=2.7V Details on http://radiosondy.info
F5RZC-11U27502022022-12-07 10:24:2453.8581-3.082411383516848Clb=2.9m/s t=-59.5C h=1.9% p=-1.0hPa 405.100 MHz Type=RS41-SG ser=U2750202 Radiosonde
F5RZC-14U27502022022-12-07 10:24:2253.8582-3.082611373916842Clb=2.8m/s t=-59.5C h=5.3% 405.10MHz Type=RS41-SG Details on http://radiosondy.info
G4VFL-14U27502022022-12-07 10:24:1453.8588-3.083471414416816Clb=3.2m/s t=-59.6C h=5.4% 405.10MHz Type=RS41-SG Details on http://radiosondy.info
F5RZC-14U27502022022-12-07 10:24:0753.8594-3.084161464816792Clb=2.7m/s t=-59.6C h=5.3% 405.10MHz Type=RS41-SG TxPastBurst=8h30m batt=2.6V Details on http://radiosondy.info
G4VFL-14U27502022022-12-07 10:23:5953.8601-3.085111455416765Clb=3.0m/s t=-59.8C h=5.4% 405.10MHz Type=RS41-SG Details on http://radiosondy.info
F5RZC-11U27502022022-12-07 10:23:5353.8608-3.085771505016746Clb=3.3m/s t=-59.8C h=1.9% p=-1.0hPa 405.100 MHz Type=RS41-SG ser=U2750202 Radiosonde
F5RZC-14U27502022022-12-07 10:23:5253.8609-3.085881505616743Clb=3.4m/s t=-59.8C h=5.4% 405.10MHz Type=RS41-SG Details on http://radiosondy.info
G4VFL-14U27502022022-12-07 10:23:4453.8618-3.08691465616719Clb=3.8m/s t=-59.9C h=5.6% 405.10MHz Type=RS41-SG batt=2.6V Details on http://radiosondy.info
F5RZC-14U27502022022-12-07 10:23:3753.8626-3.087821483916698Clb=2.2m/s t=-60.0C h=5.5% 405.10MHz Type=RS41-SG Details on http://radiosondy.info
G4VFL-14U27502022022-12-07 10:23:2853.8637-3.089031395416670Clb=2.9m/s t=-59.9C h=5.6% 405.10MHz Type=RS41-SG Details on http://radiosondy.info
F5RZC-11U27502022022-12-07 10:23:2253.8643-3.089931395216648Clb=3.3m/s t=-59.8C h=1.9% p=-1.0hPa 405.100 MHz Type=RS41-SG ser=U2750202 Radiosonde
F5RZC-11U27502022022-12-07 10:22:5153.867-3.094981355616529Clb=3.8m/s t=-59.7C h=1.9% p=-1.0hPa 405.100 MHz Type=RS41-SG ser=U2750202 Radiosonde
G3HRZU27502022022-12-07 10:22:3153.8689-3.099491224616410Clb=5.0m/s t=-59.2C h=1.9% p=-1.0hPa 405.101 MHz Type=RS41-SG ser=U2750202 Radiosonde
F5RZC-11U27502022022-12-07 10:22:2053.8691-3.099981224416396Clb=3.9m/s t=-59.1C h=1.9% p=-1.0hPa 405.100 MHz Type=RS41-SG ser=U2750202 Radiosonde
G4VFL-14U27502022022-12-07 10:22:1853.8692-3.100281214116387Clb=5.1m/s t=-59.1C h=5.4% 405.10MHz Type=RS41-SG Details on http://radiosondy.info
G4VFL-14U27502022022-12-07 10:22:0153.8699-3.102911143716310Clb=3.5m/s t=-58.6C h=5.2% 405.10MHz Type=RS41-SG TxPastBurst=8h30m batt=2.6V Details on http://radiosondy.info
G3HRZU27502022022-12-07 10:22:0053.87-3.103191123716300Clb=4.5m/s t=-58.7C h=1.9% p=-1.0hPa 405.101 MHz Type=RS41-SG ser=U2750202 Radiosonde
F5RZC-11U27502022022-12-07 10:21:4953.8705-3.104581223516254Clb=4.6m/s t=-58.6C h=1.8% p=-1.0hPa 405.100 MHz Type=RS41-SG ser=U2750202 Radiosonde
G4VFL-14U27502022022-12-07 10:21:4553.8707-3.105051223116236Clb=5.0m/s t=-58.4C h=4.9% 405.10MHz Type=RS41-SG Details on http://radiosondy.info
G3HRZU27502022022-12-07 10:21:2953.8714-3.106711293116164Clb=4.8m/s t=-58.3C h=1.8% p=-1.0hPa 405.101 MHz Type=RS41-SG ser=U2750202 Radiosonde
F5RZC-14U27502022022-12-07 10:21:2253.8719-3.107431373116133Clb=3.7m/s t=-58.1C h=5.1% 405.10MHz Type=RS41-SG batt=2.7V Details on http://radiosondy.info
F5RZC-11U27502022022-12-07 10:21:1853.8722-3.10791353316111Clb=4.3m/s t=-58.0C h=1.8% p=-1.0hPa 405.100 MHz Type=RS41-SG ser=U2750202 Radiosonde
G4VFL-14U27502022022-12-07 10:21:1353.8724-3.10831373016095Clb=4.0m/s t=-57.9C h=5.0% 405.10MHz Type=RS41-SG batt=2.6V Details on http://radiosondy.info
F5RZC-14U27502022022-12-07 10:21:0753.8727-3.10881362816067Clb=4.6m/s t=-57.7C h=4.9% 405.10MHz Type=RS41-SG Details on http://radiosondy.info
G3HRZU27502022022-12-07 10:20:5853.8732-3.10951452816027Clb=3.8m/s t=-57.6C h=1.8% p=-1.0hPa 405.101 MHz Type=RS41-SG ser=U2750202 Radiosonde
F5RZC-14U27502022022-12-07 10:20:5253.8735-3.109931433116000Clb=5.1m/s t=-57.4C h=4.9% 405.10MHz Type=RS41-SG Details on http://radiosondy.info
F5RZC-11U27502022022-12-07 10:20:4753.8738-3.110311442815979Clb=5.1m/s t=-57.5C h=1.7% p=-1.0hPa 405.100 MHz Type=RS41-SG ser=U2750202 Radiosonde
G4VFL-14U27502022022-12-07 10:20:4353.8741-3.11061473515960Clb=3.7m/s t=-57.4C h=4.9% 405.10MHz Type=RS41-SG Details on http://radiosondy.info
F5RZC-14U27502022022-12-07 10:20:3753.8745-3.111081495015933Clb=4.0m/s t=-57.2C h=4.8% 405.10MHz Type=RS41-SG batt=2.6V Details on http://radiosondy.info
G3HRZU27502022022-12-07 10:20:2753.8753-3.111931463715887Clb=4.9m/s t=-57.7C h=1.8% p=-1.0hPa 405.101 MHz Type=RS41-SG ser=U2750202 Radiosonde
F5RZC-11U27502022022-12-07 10:20:1653.876-3.112771383315839Clb=5.6m/s t=-57.5C h=1.8% p=-1.0hPa 405.100 MHz Type=RS41-SG ser=U2750202 Radiosonde
G3HRZU27502022022-12-07 10:19:5653.8774-3.114531534315750Clb=5.0m/s t=-57.0C h=1.8% p=-1.0hPa 405.101 MHz Type=RS41-SG ser=U2750202 Radiosonde
F5RZC-11U27502022022-12-07 10:19:4553.8785-3.115671423915698Clb=3.6m/s t=-57.0C h=1.7% p=-1.0hPa 405.100 MHz Type=RS41-SG ser=U2750202 Radiosonde
G3HRZU27502022022-12-07 10:19:2553.8803-3.117751414815612Clb=5.1m/s t=-57.0C h=1.8% p=-1.0hPa 405.101 MHz Type=RS41-SG ser=U2750202 Radiosonde
F5RZC-11U27502022022-12-07 10:19:1453.8815-3.119011514815558Clb=4.1m/s t=-57.5C h=1.9% p=-1.0hPa 405.100 MHz Type=RS41-SG ser=U2750202 Radiosonde
G4VFL-14U27502022022-12-07 10:19:0353.8826-3.120021505215513Clb=5.2m/s t=-57.6C h=5.0% 405.10MHz Type=RS41-SG Details on http://radiosondy.info
G3HRZU27502022022-12-07 10:18:5453.8837-3.121151405415468Clb=5.3m/s t=-58.1C h=1.9% p=-1.0hPa 405.101 MHz Type=RS41-SG ser=U2750202 Radiosonde
G4VFL-14U27502022022-12-07 10:18:4753.8843-3.122031425715441Clb=4.6m/s t=-57.8C h=5.2% 405.10MHz Type=RS41-SG Details on http://radiosondy.info
F5RZC-11U27502022022-12-07 10:18:4353.8848-3.122751415915421Clb=4.7m/s t=-57.6C h=1.9% p=-1.0hPa 405.100 MHz Type=RS41-SG ser=U2750202 Radiosonde
G4VFL-14U27502022022-12-07 10:18:3053.8862-3.124581415615370Clb=4.9m/s t=-57.5C h=5.1% 405.10MHz Type=RS41-SG TxPastBurst=8h30m batt=2.7V Details on http://radiosondy.info
G3HRZU27502022022-12-07 10:18:2353.887-3.125821345615336Clb=4.9m/s t=-57.5C h=1.9% p=-1.0hPa 405.101 MHz Type=RS41-SG ser=U2750202 Radiosonde
F5RZC-14U27502022022-12-07 10:18:2253.887-3.125811355415336Clb=4.8m/s t=-57.5C h=4.9% 405.10MHz Type=RS41-SG Details on http://radiosondy.info
G4VFL-14U27502022022-12-07 10:18:1553.8877-3.126941385215306Clb=3.2m/s t=-57.3C h=4.9% 405.10MHz Type=RS41-SG Details on http://radiosondy.info
F5RZC-11U27502022022-12-07 10:18:1253.8881-3.127531385415290Clb=4.3m/s t=-57.3C h=1.9% p=-1.0hPa 405.100 MHz Type=RS41-SG ser=U2750202 Radiosonde
F5RZC-14U27502022022-12-07 10:18:0753.8885-3.128141374815274Clb=4.8m/s t=-57.5C h=5.0% 405.10MHz Type=RS41-SG Details on http://radiosondy.info
G4VFL-14U27502022022-12-07 10:17:5953.8891-3.129331324815242Clb=4.7m/s t=-57.9C h=5.1% 405.10MHz Type=RS41-SG Details on http://radiosondy.info
F5RZC-14U27502022022-12-07 10:17:5253.8897-3.130341404615215Clb=3.5m/s t=-58.0C h=5.1% 405.10MHz Type=RS41-SG TxPastBurst=8h30m batt=2.7V Details on http://radiosondy.info
G4VFL-14U27502022022-12-07 10:17:4353.8906-3.131511394415181Clb=4.0m/s t=-58.6C h=5.4% 405.10MHz Type=RS41-SG batt=2.6V Details on http://radiosondy.info
F5RZC-11U27502022022-12-07 10:17:4053.8908-3.131891334315169Clb=3.6m/s t=-58.5C h=2.1% p=-1.0hPa 405.100 MHz Type=RS41-SG ser=U2750202 Radiosonde
F5RZC-14U27502022022-12-07 10:17:3753.891-3.132271353515158Clb=3.5m/s t=-58.3C h=5.3% 405.10MHz Type=RS41-SG Details on http://radiosondy.info
G4VFL-14U27502022022-12-07 10:17:2753.8918-3.133651324415118Clb=4.7m/s t=-58.1C h=5.2% 405.10MHz Type=RS41-SG Details on http://radiosondy.info
G3HRZU27502022022-12-07 10:17:2153.8923-3.134651283915091Clb=4.0m/s t=-58.4C h=2.1% p=-1.0hPa 405.101 MHz Type=RS41-SG ser=U2750202 Radiosonde
F5RZC-11U27502022022-12-07 10:17:0953.8932-3.136181274315049Clb=3.1m/s t=-58.2C h=2.1% p=-1.0hPa 405.100 MHz Type=RS41-SG ser=U2750202 Radiosonde
G3HRZU27502022022-12-07 10:16:5053.8944-3.138831273514969Clb=4.6m/s t=-57.8C h=2.0% p=-1.0hPa 405.101 MHz Type=RS41-SG ser=U2750202 Radiosonde
F5RZC-11U27502022022-12-07 10:16:3853.8951-3.140131323114927Clb=4.3m/s t=-58.0C h=2.0% p=-1.0hPa 405.100 MHz Type=RS41-SG ser=U2750202 Radiosonde
G3HRZU27502022022-12-07 10:16:1953.8963-3.142121413314848Clb=3.5m/s t=-58.9C h=2.1% p=-1.0hPa 405.101 MHz Type=RS41-SG ser=U2750202 Radiosonde
G4VFL-14U27502022022-12-07 10:16:1753.8964-3.142211442814844Clb=4.8m/s t=-58.9C h=5.5% 405.10MHz Type=RS41-SG Details on http://radiosondy.info
F5RZC-11U27502022022-12-07 10:16:0753.8969-3.142811582414804Clb=4.2m/s t=-58.6C h=2.1% p=-1.0hPa 405.100 MHz Type=RS41-SG ser=U2750202 Radiosonde
G4VFL-14U27502022022-12-07 10:16:0153.8973-3.143151563014780Clb=2.8m/s t=-58.4C h=5.5% 405.10MHz Type=RS41-SG batt=2.6V Details on http://radiosondy.info
G3HRZU27502022022-12-07 10:15:4853.8983-3.1441523314727Clb=4.7m/s t=-58.2C h=2.1% p=-1.0hPa 405.101 MHz Type=RS41-SG ser=U2750202 Radiosonde
G4VFL-14U27502022022-12-07 10:15:4553.8984-3.144141503114719Clb=4.5m/s t=-58.2C h=5.4% 405.10MHz Type=RS41-SG Details on http://radiosondy.info
F5RZC-11U27502022022-12-07 10:15:3653.899-3.144791463014685Clb=4.5m/s t=-57.9C h=2.1% p=-1.0hPa 405.100 MHz Type=RS41-SG ser=U2750202 Radiosonde
G4VFL-14U27502022022-12-07 10:15:2953.8994-3.145261503314657Clb=3.9m/s t=-57.9C h=5.2% 405.10MHz Type=RS41-SG Details on http://radiosondy.info
F5RZC-14U27502022022-12-07 10:15:2353.8999-3.145681553314633Clb=4.0m/s t=-58.0C h=5.2% 405.10MHz Type=RS41-SG Details on http://radiosondy.info
G3HRZU27502022022-12-07 10:15:1653.9004-3.146121503114607Clb=4.1m/s t=-58.1C h=2.1% p=-1.0hPa 405.101 MHz Type=RS41-SG ser=U2750202 Radiosonde
G4VFL-14U27502022022-12-07 10:15:1353.9006-3.146321543714595Clb=3.9m/s t=-58.1C h=5.4% 405.10MHz Type=RS41-SG TxPastBurst=8h30m batt=2.6V Details on http://radiosondy.info
F5RZC-14U27502022022-12-07 10:15:0853.901-3.14661603914575Clb=3.8m/s t=-58.0C h=5.4% 405.10MHz Type=RS41-SG batt=2.6V Details on http://radiosondy.info
F5RZC-11U27502022022-12-07 10:15:0553.9013-3.146771583514563Clb=4.2m/s t=-58.0C h=2.1% p=-1.0hPa 405.100 MHz Type=RS41-SG ser=U2750202 Radiosonde
G4VFL-14U27502022022-12-07 10:14:5753.902-3.147321564114529Clb=3.8m/s t=-57.9C h=5.3% 405.10MHz Type=RS41-SG Details on http://radiosondy.info
F5RZC-14U27502022022-12-07 10:14:5353.9023-3.147591594114514Clb=4.7m/s t=-58.2C h=5.3% 405.10MHz Type=RS41-SG Details on http://radiosondy.info
G3HRZU27502022022-12-07 10:14:4653.9031-3.14811534314482Clb=4.3m/s t=-58.1C h=2.2% p=-1.0hPa 405.101 MHz Type=RS41-SG ser=U2750202 Radiosonde
G4VFL-14U27502022022-12-07 10:14:4253.9034-3.148321583914470Clb=3.1m/s t=-58.1C h=5.3% 405.10MHz Type=RS41-SG Details on http://radiosondy.info
F5RZC-14U27502022022-12-07 10:14:3853.9037-3.148631495414455Clb=3.5m/s t=-58.1C h=5.4% 405.10MHz Type=RS41-SG Details on http://radiosondy.info
F5RZC-11U27502022022-12-07 10:14:3453.904-3.148961433714437Clb=4.1m/s t=-58.1C h=2.2% p=-1.0hPa 405.100 MHz Type=RS41-SG ser=U2750202 Radiosonde
G4VFL-14U27502022022-12-07 10:14:2653.9047-3.149691464114405Clb=4.4m/s t=-58.0C h=5.3% 405.10MHz Type=RS41-SG batt=2.6V Details on http://radiosondy.info
G3HRZU27502022022-12-07 10:14:1453.9056-3.150981373714355Clb=4.8m/s t=-58.0C h=2.1% p=-1.0hPa 405.101 MHz Type=RS41-SG ser=U2750202 Radiosonde
F5RZC-11U27502022022-12-07 10:14:0353.9064-3.152071453714309Clb=4.5m/s t=-57.9C h=2.2% p=-1.0hPa 405.100 MHz Type=RS41-SG ser=U2750202 Radiosonde
G3HRZU27502022022-12-07 10:13:4353.9081-3.153861503914222Clb=3.5m/s t=-57.3C h=2.1% p=-1.0hPa 405.101 MHz Type=RS41-SG ser=U2750202 Radiosonde
F5RZC-11U27502022022-12-07 10:13:3253.909-3.154621633514170Clb=4.9m/s t=-57.6C h=-1.0% p=-1.0hPa 405.100 MHz Type=RS41-SG ser=U2750202 Radiosonde
G4VFL-14U27502022022-12-07 10:13:1453.9109-3.155471614414087Clb=3.3m/s t=-57.3C h=5.3% 405.10MHz Type=RS41-SG Details on http://radiosondy.info
G3HRZU27502022022-12-07 10:13:1253.9111-3.15561604314077Clb=4.6m/s t=-57.4C h=2.2% p=-1.0hPa 405.101 MHz Type=RS41-SG ser=U2750202 Radiosonde
F5RZC-11U27502022022-12-07 10:13:0353.9123-3.156281654414027Clb=4.4m/s t=-57.5C h=-1.0% p=-1.0hPa 405.100 MHz Type=RS41 ser=U2750202 Radiosonde
G4VFL-14U27502022022-12-07 10:12:5853.9126-3.156421675214014Clb=4.9m/s t=-57.4C h=5.3% 405.10MHz Type=RS41-SG Details on http://radiosondy.info
G4VFL-14U27502022022-12-07 10:12:4253.9146-3.15731685913940Clb=5.2m/s t=-57.8C h=5.6% 405.10MHz Type=RS41-SG batt=2.7V Details on http://radiosondy.info
G3HRZU27502022022-12-07 10:12:4153.9147-3.157351675713935Clb=4.5m/s t=-57.8C h=2.4% p=-1.0hPa 405.101 MHz Type=RS41-SG ser=U2750202 Radiosonde
G4VFL-14U27502022022-12-07 10:12:2653.9169-3.158261625913863Clb=4.4m/s t=-57.9C h=5.6% 405.10MHz Type=RS41-SG Details on http://radiosondy.info
F5RZC-14U27502022022-12-07 10:12:2353.9174-3.15851625913849Clb=4.0m/s t=-58.0C calibration 94% 405.10MHz Type=RS41-SG batt=2.7V Details on http://radiosondy.info
G4VFL-14U27502022022-12-07 10:12:1153.919-3.159641575913792Clb=4.5m/s t=-58.2C h=5.7% 405.10MHz Type=RS41-SG Details on http://radiosondy.info
G3HRZU27502022022-12-07 10:12:1053.9192-3.159741565913787Clb=4.1m/s t=-58.3C h=2.5% p=-1.0hPa 405.101 MHz Type=RS41-SG ser=U2750202 Radiosonde
F5RZC-14U27502022022-12-07 10:12:0853.9194-3.159941576113779Clb=3.3m/s calibration 64% 405.10MHz Type=RS41-SG Details on http://radiosondy.info
G4VFL-14U27502022022-12-07 10:11:5653.921-3.161421496313722Clb=4.0m/s t=-58.5C h=5.8% 405.10MHz Type=RS41-SG TxPastBurst=8h30m batt=2.6V Details on http://radiosondy.info
F5RZC-14U27502022022-12-07 10:11:5353.9214-3.161831496113710Clb=3.2m/s calibration 35% Type=RS41-SG Details on http://radiosondy.info
G4VFL-14U27502022022-12-07 10:11:4153.9229-3.163741386113655Clb=4.7m/s t=-58.4C h=5.8% 405.10MHz Type=RS41-SG Details on http://radiosondy.info
G3HRZU27502022022-12-07 10:11:3953.9231-3.164091386113646Clb=3.8m/s t=-58.5C h=2.7% p=-1.0hPa 405.101 MHz Type=RS41-SG ser=U2750202 Radiosonde
F5RZC-14U27502022022-12-07 10:11:3853.9232-3.164251405913641Clb=4.8m/s calibration 7% Type=RS41 batt=2.6V Details on http://radiosondy.info
G4VFL-14U27502022022-12-07 10:11:2553.9246-3.166631335613587Clb=4.1m/s t=-58.8C h=5.9% 405.10MHz Type=RS41-SG Details on http://radiosondy.info
G3HRZU27502022022-12-07 10:11:0853.9261-3.169761255213513Clb=3.8m/s t=-59.0C h=2.8% p=-1.0hPa 405.101 MHz Type=RS41-SG ser=U2750202 Radiosonde
G3HRZU27502022022-12-07 10:10:3753.9281-3.174631274313387Clb=3.9m/s t=-58.3C h=2.7% p=-1.0hPa 405.101 MHz Type=RS41-SG ser=U2750202 Radiosonde
G4VFL-14U27502022022-12-07 10:10:1553.9297-3.177321443513295Clb=3.2m/s t=-57.8C h=5.7% 405.10MHz Type=RS41-SG batt=2.6V Details on http://radiosondy.info
G3HRZU27502022022-12-07 10:10:0653.9304-3.178221423313259Clb=3.6m/s t=-57.8C h=2.7% p=-1.0hPa 405.101 MHz Type=RS41-SG ser=U2750202 Radiosonde
G4VFL-14U27502022022-12-07 10:10:0053.9308-3.178751453113236Clb=3.8m/s t=-57.6C h=5.8% 405.10MHz Type=RS41-SG Details on http://radiosondy.info
G4VFL-14U27502022022-12-07 10:09:4553.9317-3.179971533013175Clb=3.8m/s t=-57.1C h=5.6% 405.10MHz Type=RS41-SG Details on http://radiosondy.info
G3HRZU27502022022-12-07 10:09:3553.9323-3.180591552613133Clb=4.8m/s t=-57.0C h=2.7% p=-1.0hPa 405.101 MHz Type=RS41-SG ser=U2750202 Radiosonde
G4VFL-14U27502022022-12-07 10:09:2953.9327-3.180871562813109Clb=3.6m/s t=-56.9C h=5.6% 405.10MHz Type=RS41-SG batt=2.7V Details on http://radiosondy.info
G4VFL-14U27502022022-12-07 10:09:1453.9337-3.181511633513049Clb=5.0m/s t=-57.3C h=5.6% 405.10MHz Type=RS41-SG Details on http://radiosondy.info
G3HRZU27502022022-12-07 10:09:0453.9345-3.181741734113009Clb=3.8m/s t=-57.3C h=2.8% p=-1.0hPa 405.101 MHz Type=RS41-SG ser=U2750202 Radiosonde
G4VFL-14U27502022022-12-07 10:08:5953.9351-3.181821743712990Clb=4.1m/s t=-57.2C h=5.7% 405.10MHz Type=RS41-SG Details on http://radiosondy.info
G4VFL-14U27502022022-12-07 10:08:4453.9364-3.182221714312930Clb=4.5m/s t=-57.2C h=5.7% 405.10MHz Type=RS41-SG TxPastBurst=8h30m batt=2.6V Details on http://radiosondy.info
G3HRZU27502022022-12-07 10:08:3353.9376-3.182651734112888Clb=3.0m/s t=-57.7C h=2.8% p=-1.0hPa 405.101 MHz Type=RS41-SG ser=U2750202 Radiosonde
G4VFL-14U27502022022-12-07 10:08:2853.9381-3.18281725212869Clb=4.1m/s t=-58.0C h=5.9% 405.10MHz Type=RS41-SG Details on http://radiosondy.info
G3HRZU27502022022-12-07 10:08:0253.9418-3.183641746512771Clb=2.8m/s t=-57.8C h=3.1% p=-1.0hPa 405.101 MHz Type=RS41-SG ser=U2750202 Radiosonde
G3HRZU27502022022-12-07 10:07:3153.9466-3.185141666512665Clb=2.5m/s t=-58.4C h=3.4% p=-1.0hPa 405.101 MHz Type=RS41-SG ser=U2750202 Radiosonde
G4VFL-14U27502022022-12-07 10:07:1553.9493-3.186561607212611Clb=3.6m/s t=-58.7C h=7.0% 405.10MHz Type=RS41-SG Details on http://radiosondy.info
G3HRZU27502022022-12-07 10:07:0053.952-3.188161566912559Clb=3.8m/s t=-59.1C h=3.9% p=-1.0hPa 405.101 MHz Type=RS41-SG ser=U2750202 Radiosonde
G4VFL-14U27502022022-12-07 10:06:5853.9521-3.188281567012556Clb=3.2m/s t=-59.1C h=7.3% 405.10MHz Type=RS41-SG batt=2.7V Details on http://radiosondy.info
G4VFL-14U27502022022-12-07 10:06:4253.9547-3.190281557212500Clb=3.7m/s t=-59.0C h=7.6% 405.10MHz Type=RS41-SG Details on http://radiosondy.info
G3HRZU27502022022-12-07 10:06:2953.957-3.192231527212451Clb=4.4m/s t=-59.5C h=4.6% p=-1.0hPa 405.101 MHz Type=RS41-SG ser=U2750202 Radiosonde
G4VFL-14U27502022022-12-07 10:06:2753.9571-3.192361557612448Clb=3.1m/s t=-59.5C h=8.0% 405.10MHz Type=RS41-SG Details on http://radiosondy.info
G4VFL-14U27502022022-12-07 10:06:1253.9597-3.194381577412391Clb=3.7m/s t=-60.4C h=8.9% 405.10MHz Type=RS41-SG batt=2.7V Details on http://radiosondy.info
G3HRZU27502022022-12-07 10:05:5853.9622-3.196271587412328Clb=4.8m/s t=-61.1C h=6.0% p=-1.0hPa 405.101 MHz Type=RS41-SG ser=U2750202 Radiosonde
G4VFL-14U27502022022-12-07 10:05:5753.9622-3.196271597212328Clb=4.8m/s t=-61.1C h=10.0% 405.10MHz Type=RS41-SG Details on http://radiosondy.info
G4VFL-14U27502022022-12-07 10:05:4253.9647-3.197981566712261Clb=4.8m/s t=-61.1C h=10.4% 405.10MHz Type=RS41-SG Details on http://radiosondy.info
G4VFL-14U27502022022-12-07 10:05:2753.9669-3.199691545912194Clb=3.4m/s t=-60.9C h=10.7% 405.10MHz Type=RS41-SG TxPastBurst=8h30m batt=2.6V Details on http://radiosondy.info
G3HRZU27502022022-12-07 10:04:5653.9713-3.203671486512047Clb=3.8m/s t=-60.8C h=8.0% p=-1.0hPa 405.101 MHz Type=RS41-SG ser=U2750202 Radiosonde
G3HRZU27502022022-12-07 10:04:2553.9751-3.207491445411913Clb=3.8m/s t=-61.9C h=10.1% p=-1.0hPa 405.101 MHz Type=RS41-SG ser=U2750202 Radiosonde
G4VFL-14U27502022022-12-07 10:04:1353.9763-3.208861455011868Clb=4.3m/s t=-61.9C h=15.5% 405.10MHz Type=RS41-SG Details on http://radiosondy.info
G4VFL-14U27502022022-12-07 10:03:5753.9778-3.211011353911797Clb=5.1m/s t=-61.4C h=15.7% 405.10MHz Type=RS41-SG Details on http://radiosondy.info
G3HRZU27502022022-12-07 10:03:5353.9782-3.211611384611777Clb=5.8m/s t=-61.3C h=11.3% p=-1.0hPa 405.101 MHz Type=RS41-SG ser=U2750202 Radiosonde
G4VFL-14U27502022022-12-07 10:03:4253.9791-3.212381494411719Clb=4.7m/s t=-60.7C h=14.9% 405.10MHz Type=RS41-SG batt=2.7V Details on http://radiosondy.info
G4VFL-14U27502022022-12-07 10:03:2753.9804-3.214011434411649Clb=4.4m/s t=-60.0C h=14.3% 405.10MHz Type=RS41-SG Details on http://radiosondy.info
G3HRZU27502022022-12-07 10:03:2253.9809-3.214621414611626Clb=4.1m/s t=-59.9C h=10.2% p=-1.0hPa 405.101 MHz Type=RS41-SG ser=U2750202 Radiosonde
G4VFL-14U27502022022-12-07 10:03:1253.9818-3.215671384311581Clb=5.5m/s t=-59.4C h=13.9% 405.10MHz Type=RS41-SG Details on http://radiosondy.info
G4VFL-14U27502022022-12-07 10:02:5753.983-3.217221454311506Clb=4.0m/s t=-58.8C h=14.6% 405.10MHz Type=RS41-SG batt=2.7V Details on http://radiosondy.info
G3HRZU27502022022-12-07 10:02:5153.9835-3.218031354811471Clb=7.6m/s t=-58.6C h=10.3% p=-1.0hPa 405.101 MHz Type=RS41-SG ser=U2750202 Radiosonde
G4VFL-14U27502022022-12-07 10:02:4253.9843-3.218781534611412Clb=4.2m/s t=-58.9C h=15.2% 405.10MHz Type=RS41-SG Details on http://radiosondy.info
G4VFL-14U27502022022-12-07 10:02:2653.9861-3.219661635411338Clb=3.0m/s t=-59.3C h=15.6% 405.10MHz Type=RS41-SG Details on http://radiosondy.info
G3HRZU27502022022-12-07 10:02:2053.9867-3.219941694611315Clb=4.1m/s t=-59.6C h=12.9% p=-1.0hPa 405.101 MHz Type=RS41-SG ser=U2750202 Radiosonde
G3HRZU27502022022-12-07 10:01:4953.9901-3.220981763911181Clb=4.7m/s t=-59.1C h=16.5% p=-1.0hPa 405.101 MHz Type=RS41-SG ser=U2750202 Radiosonde
G3HRZU27502022022-12-07 10:01:1853.994-3.220821805611037Clb=3.5m/s t=-59.3C h=20.0% p=-1.0hPa 405.101 MHz Type=RS41-SG ser=U2750202 Radiosonde
G4VFL-14U27502022022-12-07 10:01:0353.9961-3.220571856110975Clb=4.6m/s t=-59.4C h=26.1% 405.10MHz Type=RS41-SG TxPastBurst=8h30m batt=2.7V Details on http://radiosondy.info
G3HRZU27502022022-12-07 10:00:4753.9986-3.220411816710907Clb=3.8m/s t=-59.2C h=20.8% p=-1.0hPa 405.101 MHz Type=RS41-SG ser=U2750202 Radiosonde
G4VFL-14U27502022022-12-07 10:00:4653.9988-3.22041826710903Clb=4.7m/s t=-59.2C h=26.0% 405.10MHz Type=RS41-SG Details on http://radiosondy.info
G4VFL-14U27502022022-12-07 10:00:3054.0014-3.220341807210833Clb=4.8m/s t=-58.8C h=25.7% 405.10MHz Type=RS41-SG Details on http://radiosondy.info
G3HRZU27502022022-12-07 10:00:1654.0039-3.220511766910770Clb=4.5m/s t=-58.4C h=21.0% p=-1.0hPa 405.101 MHz Type=RS41-SG ser=U2750202 Radiosonde
G4VFL-14U27502022022-12-07 10:00:1454.0043-3.220541787010761Clb=4.7m/s t=-58.3C h=26.5% 405.10MHz Type=RS41-SG batt=2.7V Details on http://radiosondy.info
G4VFL-14U27502022022-12-07 09:59:5754.0073-3.220961747010683Clb=5.8m/s t=-58.0C h=25.6% 405.10MHz Type=RS41-SG Details on http://radiosondy.info
G3HRZU27502022022-12-07 09:59:4554.0093-3.221561667410626Clb=4.8m/s t=-58.3C h=20.8% p=-1.0hPa 405.101 MHz Type=RS41-SG ser=U2750202 Radiosonde
G4VFL-14U27502022022-12-07 09:59:4154.01-3.221871667010609Clb=4.1m/s t=-58.3C h=26.0% 405.10MHz Type=RS41-SG Details on http://radiosondy.info
G4VFL-14U27502022022-12-07 09:59:2654.0124-3.223281596510550Clb=5.0m/s t=-58.1C h=23.6% 405.10MHz Type=RS41-SG batt=2.7V Details on http://radiosondy.info
G3HRZU27502022022-12-07 09:59:1454.0143-3.224311625910476Clb=4.7m/s t=-57.8C h=17.5% p=-1.0hPa 405.101 MHz Type=RS41-SG ser=U2750202 Radiosonde
G3HRZU27502022022-12-07 09:58:4354.0191-3.226261666310337Clb=4.1m/s t=-57.0C h=16.0% p=-1.0hPa 405.101 MHz Type=RS41-SG ser=U2750202 Radiosonde
M0DMP-12U27502022022-12-07 09:58:3054.0224-3.227471666910254Clb=4.7m/s t=-273.0C h=-1.0% p=-1.0hPa 405.101 MHz Type=RS41 Radiosonde auto_rx v1.5.9
G4VFL-14U27502022022-12-07 09:58:1754.0234-3.22791667010229Clb=3.3m/s t=-56.6C h=22.8% 405.10MHz Type=RS41-SG Details on http://radiosondy.info
G3HRZU27502022022-12-07 09:58:1254.0242-3.228281636710209Clb=4.6m/s t=-56.7C h=18.7% p=-1.0hPa 405.101 MHz Type=RS41-SG ser=U2750202 Radiosonde
G4VFL-14U27502022022-12-07 09:58:0154.0261-3.229241627410168Clb=4.3m/s t=-56.3C h=23.6% 405.10MHz Type=RS41-SG Details on http://radiosondy.info
G4VFL-14U27502022022-12-07 09:57:4654.0287-3.230741637410113Clb=4.0m/s t=-56.0C h=24.4% 405.10MHz Type=RS41-SG TxPastBurst=8h30m batt=2.7V Details on http://radiosondy.info
G3HRZU27502022022-12-07 09:57:4154.0298-3.231391577410090Clb=3.2m/s t=-55.9C h=19.8% p=-1.0hPa 405.101 MHz Type=RS41-SG ser=U2750202 Radiosonde
G4VFL-14U27502022022-12-07 09:57:3054.0314-3.232541587210057Clb=2.8m/s t=-55.9C h=25.3% 405.10MHz Type=RS41-SG Details on http://radiosondy.info
G4VFL-14U27502022022-12-07 09:57:1354.0342-3.234711567210003Clb=3.5m/s t=-55.6C h=21.9% 405.10MHz Type=RS41-SG Details on http://radiosondy.info
G3HRZU27502022022-12-07 09:57:1054.0347-3.2351154729994Clb=2.4m/s t=-55.6C h=17.0% p=-1.0hPa 405.101 MHz Type=RS41-SG ser=U2750202 Radiosonde
G4VFL-14U27502022022-12-07 09:56:5854.0366-3.2368154729958Clb=2.5m/s t=-55.3C h=19.9% 405.10MHz Type=RS41-SG batt=2.7V Details on http://radiosondy.info
G4VFL-14U27502022022-12-07 09:56:4254.0391-3.2391152709908Clb=1.1m/s t=-54.9C h=20.2% 405.10MHz Type=RS41-SG Details on http://radiosondy.info
G3HRZU27502022022-12-07 09:56:3954.0397-3.23965151699897Clb=2.7m/s t=-54.9C h=16.6% p=-1.0hPa 405.101 MHz Type=RS41-SG ser=U2750202 Radiosonde
G4VFL-14U27502022022-12-07 09:56:2754.0414-3.24119153699865Clb=2.0m/s t=-54.6C h=21.5% 405.10MHz Type=RS41-SG Details on http://radiosondy.info
G3HRZU27502022022-12-07 09:56:0854.0444-3.24387151639805Clb=2.5m/s t=-54.3C h=19.2% p=-1.0hPa 405.101 MHz Type=RS41-SG ser=U2750202 Radiosonde
G3HRZU27502022022-12-07 09:55:3754.0491-3.24769156699709Clb=3.3m/s t=-53.8C h=19.8% p=-1.0hPa 405.101 MHz Type=RS41-SG ser=U2750202 Radiosonde
G4VFL-14U27502022022-12-07 09:55:1654.0522-3.25007154659643Clb=2.3m/s t=-53.2C h=25.1% 405.10MHz Type=RS41-SG batt=2.7V Details on http://radiosondy.info
G3HRZU27502022022-12-07 09:55:0654.0538-3.25136156639606Clb=2.9m/s t=-53.1C h=21.4% p=-1.0hPa 405.101 MHz Type=RS41-SG ser=U2750202 Radiosonde
G4VFL-14U27502022022-12-07 09:55:0054.0545-3.25192155659588Clb=3.4m/s t=-52.9C h=26.1% 405.10MHz Type=RS41-SG Details on http://radiosondy.info
G4VFL-14U27502022022-12-07 09:54:4554.0567-3.25374153619536Clb=3.1m/s t=-52.6C h=26.4% 405.10MHz Type=RS41-SG Details on http://radiosondy.info
G3HRZU27502022022-12-07 09:54:3554.0584-3.2552151579492Clb=4.4m/s t=-52.2C h=20.6% p=-1.0hPa 405.101 MHz Type=RS41-SG ser=U2750202 Radiosonde
G4VFL-14U27502022022-12-07 09:54:2854.059-3.25579151619473Clb=3.3m/s t=-52.1C h=22.6% 405.10MHz Type=RS41-SG TxPastBurst=8h30m batt=2.7V Details on http://radiosondy.info
G4VFL-14U27502022022-12-07 09:54:1254.0612-3.25766154619411Clb=2.8m/s t=-51.8C h=21.5% 405.10MHz Type=RS41-SG Details on http://radiosondy.info
G3HRZU27502022022-12-07 09:54:0454.0624-3.25882150619376Clb=3.4m/s t=-51.6C h=19.0% p=-1.0hPa 405.101 MHz Type=RS41-SG ser=U2750202 Radiosonde
G4VFL-14U27502022022-12-07 09:53:5754.0632-3.25952152579353Clb=3.9m/s t=-51.3C h=23.6% 405.10MHz Type=RS41-SG Details on http://radiosondy.info
G4VFL-14U27502022022-12-07 09:53:4154.0652-3.26132155599290Clb=2.9m/s t=-50.7C h=25.1% 405.10MHz Type=RS41-SG batt=2.7V Details on http://radiosondy.info
G3HRZU27502022022-12-07 09:53:3354.0664-3.26239153579254Clb=3.9m/s t=-50.5C h=22.5% p=-1.0hPa 405.101 MHz Type=RS41-SG ser=U2750202 Radiosonde
G4VFL-14U27502022022-12-07 09:53:2654.0672-3.26302156579230Clb=4.8m/s t=-50.3C h=27.3% 405.10MHz Type=RS41-SG Details on http://radiosondy.info
G3HRZU27502022022-12-07 09:53:0254.0705-3.2659153619123Clb=3.5m/s t=-49.6C h=22.2% p=-1.0hPa 405.101 MHz Type=RS41-SG ser=U2750202 Radiosonde
G3HRZU27502022022-12-07 09:52:3054.0745-3.26954151578989Clb=4.7m/s t=-48.6C h=22.5% p=-1.0hPa 405.101 MHz Type=RS41-SG ser=U2750202 Radiosonde
G4VFL-14U27502022022-12-07 09:52:1354.0767-3.27147152598917Clb=3.7m/s t=-48.0C h=26.2% 405.10MHz Type=RS41-SG Details on http://radiosondy.info
G3HRZU27502022022-12-07 09:51:5954.0785-3.2731152568854Clb=4.1m/s t=-47.5C h=21.7% p=-1.0hPa 405.101 MHz Type=RS41-SG ser=U2750202 Radiosonde
G4VFL-14U27502022022-12-07 09:51:5754.0788-3.27332154618845Clb=4.0m/s t=-47.4C h=24.8% 405.10MHz Type=RS41-SG batt=2.7V Details on http://radiosondy.info
G4VFL-14U27502022022-12-07 09:51:4154.0809-3.27523154618772Clb=4.8m/s t=-46.8C h=23.5% 405.10MHz Type=RS41-SG Details on http://radiosondy.info
G3HRZU27502022022-12-07 09:51:2854.0827-3.27675152618715Clb=3.7m/s t=-46.4C h=19.8% p=-1.0hPa 405.101 MHz Type=RS41-SG ser=U2750202 Radiosonde
G4VFL-14U27502022022-12-07 09:51:2654.0829-3.27699153618706Clb=4.3m/s t=-46.3C h=22.6% 405.10MHz Type=RS41-SG Details on http://radiosondy.info
G4VFL-14U27502022022-12-07 09:51:1154.0849-3.27877152618640Clb=4.8m/s t=-45.8C h=22.2% 405.10MHz Type=RS41-SG TxPastBurst=8h30m batt=2.7V Details on http://radiosondy.info
M0DMP-12U27502022022-12-07 09:51:0054.0867-3.28033151598583Clb=4.6m/s t=-273.0C h=-1.0% p=-1.0hPa 405.101 MHz Type=RS41 Radiosonde auto_rx v1.5.9
G3HRZU27502022022-12-07 09:50:5754.0868-3.28045151618578Clb=3.6m/s t=-45.3C h=19.1% p=-1.0hPa 405.101 MHz Type=RS41-SG ser=U2750202 Radiosonde
G4VFL-14U27502022022-12-07 09:50:5654.0869-3.28058151638574Clb=4.8m/s t=-45.2C h=21.8% 405.10MHz Type=RS41-SG Details on http://radiosondy.info
G4VFL-14U27502022022-12-07 09:50:4154.089-3.28251152598509Clb=4.6m/s t=-44.7C h=21.1% 405.10MHz Type=RS41-SG Details on http://radiosondy.info
G3HRZU27502022022-12-07 09:50:2654.091-3.28425152578444Clb=3.8m/s t=-44.3C h=15.4% p=-1.0hPa 405.101 MHz Type=RS41-SG ser=U2750202 Radiosonde
G4VFL-14U27502022022-12-07 09:50:2554.0911-3.28437151578441Clb=4.3m/s t=-44.3C h=18.0% 405.10MHz Type=RS41-SG batt=2.7V Details on http://radiosondy.info
M0DMP-12U27502022022-12-07 09:50:0054.0948-3.28779152568323Clb=3.9m/s t=-273.0C h=-1.0% p=-1.0hPa 405.101 MHz Type=RS41 Radiosonde auto_rx v1.5.9
G3HRZU27502022022-12-07 09:49:5554.0949-3.2879150568319Clb=4.9m/s t=-43.6C h=12.2% p=-1.0hPa 405.101 MHz Type=RS41-SG ser=U2750202 Radiosonde
G3HRZU27502022022-12-07 09:49:2454.0989-3.29129152568202Clb=4.2m/s t=-43.1C h=14.4% p=-1.0hPa 405.101 MHz Type=RS41-SG ser=U2750202 Radiosonde
G4VFL-14U27502022022-12-07 09:49:1754.0998-3.29206155578176Clb=4.6m/s t=-42.8C h=16.5% 405.10MHz Type=RS41-SG Details on http://radiosondy.info
G4VFL-14U27502022022-12-07 09:49:0154.1018-3.29373155598116Clb=3.9m/s t=-42.4C h=15.9% 405.10MHz Type=RS41-SG Details on http://radiosondy.info
G3HRZU27502022022-12-07 09:48:5354.1029-3.29461151618085Clb=3.8m/s t=-42.2C h=14.7% p=-1.0hPa 405.101 MHz Type=RS41-SG ser=U2750202 Radiosonde
G4VFL-14U27502022022-12-07 09:48:4654.1038-3.29543152618060Clb=4.0m/s t=-42.1C h=22.2% 405.10MHz Type=RS41-SG batt=2.7V Details on http://radiosondy.info
G4VFL-14U27502022022-12-07 09:48:3054.1059-3.29735153578004Clb=4.0m/s t=-41.7C h=24.4% 405.10MHz Type=RS41-SG Details on http://radiosondy.info
G3HRZU27502022022-12-07 09:48:2254.107-3.29829150577975Clb=2.9m/s t=-41.5C h=22.6% p=-1.0hPa 405.101 MHz Type=RS41-SG ser=U2750202 Radiosonde
G4VFL-14U27502022022-12-07 09:48:1454.108-3.29919154567949Clb=3.2m/s t=-41.5C h=27.8% 405.10MHz Type=RS41-SG Details on http://radiosondy.info
G4VFL-14U27502022022-12-07 09:47:5854.11-3.30084156567895Clb=3.9m/s t=-41.2C h=28.9% 405.10MHz Type=RS41-SG TxPastBurst=8h30m batt=2.7V Details on http://radiosondy.info
G3HRZU27502022022-12-07 09:47:5154.1108-3.30149158577873Clb=4.0m/s t=-41.1C h=26.9% p=-1.0hPa 405.101 MHz Type=RS41-SG ser=U2750202 Radiosonde
G4VFL-14U27502022022-12-07 09:47:4254.112-3.30232157577843Clb=3.8m/s t=-40.8C h=29.9% 405.10MHz Type=RS41-SG Details on http://radiosondy.info
G4VFL-14U27502022022-12-07 09:47:2654.1141-3.30388157547788Clb=2.7m/s t=-40.4C h=29.7% 405.10MHz Type=RS41-SG Details on http://radiosondy.info
G3HRZU27502022022-12-07 09:47:2054.1149-3.30445155567768Clb=2.9m/s t=-40.2C h=26.7% p=-1.0hPa 405.101 MHz Type=RS41-SG ser=U2750202 Radiosonde
G3HRZU27502022022-12-07 09:46:4954.1186-3.30742156527663Clb=3.6m/s t=-39.3C h=24.3% p=-1.0hPa 405.101 MHz Type=RS41-SG ser=U2750202 Radiosonde
G3HRZU27502022022-12-07 09:46:1854.1222-3.31032155487554Clb=3.5m/s t=-38.4C h=21.0% p=-1.0hPa 405.101 MHz Type=RS41-SG ser=U2750202 Radiosonde
G4VFL-14U27502022022-12-07 09:46:1554.1225-3.3106155507544Clb=3.3m/s t=-38.2C h=22.9% 405.10MHz Type=RS41-SG batt=2.7V Details on http://radiosondy.info
G4VFL-14U27502022022-12-07 09:46:0054.1242-3.31191157507490Clb=2.5m/s t=-37.8C h=24.4% 405.10MHz Type=RS41-SG Details on http://radiosondy.info
G3HRZU27502022022-12-07 09:45:4754.1258-3.31316153487440Clb=3.0m/s t=-37.4C h=22.1% p=-1.0hPa 405.101 MHz Type=RS41-SG ser=U2750202 Radiosonde
G4VFL-14U27502022022-12-07 09:45:4454.1261-3.31335152507432Clb=3.6m/s t=-37.3C h=23.8% 405.10MHz Type=RS41-SG Details on http://radiosondy.info
G4VFL-14U27502022022-12-07 09:45:2754.1279-3.31505153507370Clb=3.6m/s t=-36.8C h=22.5% 405.10MHz Type=RS41-SG batt=2.7V Details on http://radiosondy.info
G3HRZU27502022022-12-07 09:45:1654.1292-3.31615151527331Clb=3.8m/s t=-36.7C h=18.5% p=-1.0hPa 405.101 MHz Type=RS41-SG ser=U2750202 Radiosonde
G4VFL-14U27502022022-12-07 09:45:1254.1296-3.31657153507316Clb=3.5m/s t=-36.7C h=20.9% 405.10MHz Type=RS41-SG Details on http://radiosondy.info
G4VFL-14U27502022022-12-07 09:44:5754.1313-3.31797153467262Clb=3.5m/s t=-36.4C h=22.8% 405.10MHz Type=RS41-SG Details on http://radiosondy.info
G3HRZU27502022022-12-07 09:44:4554.1326-3.31908155467214Clb=3.3m/s t=-36.1C h=22.5% p=-1.0hPa 405.101 MHz Type=RS41-SG ser=U2750202 Radiosonde
G4VFL-14U27502022022-12-07 09:44:4154.1329-3.31933156487202Clb=4.5m/s t=-36.0C h=24.4% 405.10MHz Type=RS41-SG TxPastBurst=8h30m batt=2.7V Details on http://radiosondy.info
G4VFL-14U27502022022-12-07 09:44:2554.1346-3.3209150487145Clb=3.6m/s t=-35.8C h=24.4% 405.10MHz Type=RS41-SG Details on http://radiosondy.info
G3HRZU27502022022-12-07 09:44:1454.136-3.32207152507100Clb=4.1m/s t=-35.8C h=22.8% p=-1.0hPa 405.101 MHz Type=RS41-SG ser=U2750202 Radiosonde
G3HRZU27502022022-12-07 09:43:4354.1395-3.32497153506984Clb=4.5m/s t=-34.7C h=17.3% p=-1.0hPa 405.101 MHz Type=RS41-SG ser=U2750202 Radiosonde
G4VFL-14U27502022022-12-07 09:43:1554.1426-3.32727158526882Clb=3.7m/s t=-34.0C h=19.0% 405.10MHz Type=RS41-SG Details on http://radiosondy.info
G3HRZU27502022022-12-07 09:43:1254.1431-3.32757160526867Clb=4.8m/s t=-34.0C h=17.0% p=-1.0hPa 405.101 MHz Type=RS41-SG ser=U2750202 Radiosonde
G4VFL-14U27502022022-12-07 09:43:0054.1444-3.32842161506824Clb=3.5m/s t=-33.5C h=17.9% 405.10MHz Type=RS41-SG batt=2.7V Details on http://radiosondy.info
G4VFL-14U27502022022-12-07 09:42:4554.1461-3.32956161526767Clb=4.8m/s t=-33.0C h=17.7% 405.10MHz Type=RS41-SG Details on http://radiosondy.info
G3HRZU27502022022-12-07 09:42:4154.1467-3.32991161486748Clb=3.8m/s t=-32.9C h=16.2% p=-1.0hPa 405.101 MHz Type=RS41-SG ser=U2750202 Radiosonde
G4VFL-14U27502022022-12-07 09:42:2954.1481-3.33076163506705Clb=4.2m/s t=-32.4C h=17.0% 405.10MHz Type=RS41-SG Details on http://radiosondy.info
G4VFL-14U27502022022-12-07 09:42:1454.1498-3.33191161506646Clb=4.7m/s t=-31.9C h=15.6% 405.10MHz Type=RS41-SG batt=2.9V Details on http://radiosondy.info
G3HRZU27502022022-12-07 09:42:1054.1504-3.33226159506625Clb=4.1m/s t=-31.8C h=13.4% p=-1.0hPa 405.101 MHz Type=RS41-SG ser=U2750202 Radiosonde
G4VFL-14U27502022022-12-07 09:41:5854.1517-3.3331161486583Clb=4.6m/s t=-31.4C h=14.9% 405.10MHz Type=RS41-SG Details on http://radiosondy.info
G4VFL-14U27502022022-12-07 09:41:4254.1535-3.3343158486521Clb=3.8m/s t=-30.9C h=15.8% 405.10MHz Type=RS41-SG Details on http://radiosondy.info
G3HRZU27502022022-12-07 09:41:3954.154-3.33461158486506Clb=3.8m/s t=-30.8C h=15.5% p=-1.0hPa 405.101 MHz Type=RS41-SG ser=U2750202 Radiosonde
M0DMP-12U27502022022-12-07 09:41:3054.155-3.33534155486470Clb=3.3m/s t=-273.0C h=-1.0% p=-1.0hPa 405.101 MHz Type=RS41 Radiosonde auto_rx v1.5.9
G4VFL-14U27502022022-12-07 09:41:2754.1552-3.33551158506463Clb=3.2m/s t=-30.5C h=20.8% 405.10MHz Type=RS41-SG TxPastBurst=8h30m batt=2.7V Details on http://radiosondy.info
G3HRZU27502022022-12-07 09:41:0754.1575-3.33718157486389Clb=4.2m/s t=-30.0C h=12.4% p=-1.0hPa 405.101 MHz Type=RS41-SG ser=U2750202 Radiosonde
G3HRZU27502022022-12-07 09:40:3654.1612-3.33955161506273Clb=3.9m/s t=-29.4C h=22.8% p=-1.0hPa 405.101 MHz Type=RS41-SG ser=U2750202 Radiosonde
G4VFL-14U27502022022-12-07 09:40:1454.1639-3.34101166526193Clb=4.0m/s t=-28.7C h=21.9% 405.10MHz Type=RS41-SG Details on http://radiosondy.info
G3HRZU27502022022-12-07 09:40:0554.165-3.34152163526160Clb=3.5m/s t=-28.5C h=12.8% p=-1.0hPa 405.101 MHz Type=RS41-SG ser=U2750202 Radiosonde
G4VFL-14U27502022022-12-07 09:39:5954.1658-3.34183166506138Clb=3.8m/s t=-28.3C h=12.9% 405.10MHz Type=RS41-SG Details on http://radiosondy.info
G4VFL-14U27502022022-12-07 09:39:4454.1676-3.34271166566082Clb=4.4m/s t=-28.1C h=17.1% 405.10MHz Type=RS41-SG batt=2.9V Details on http://radiosondy.info
G3HRZU27502022022-12-07 09:39:3454.1689-3.34338161566044Clb=3.9m/s t=-27.9C h=15.9% p=-1.0hPa 405.101 MHz Type=RS41-SG ser=U2750202 Radiosonde
G4VFL-14U27502022022-12-07 09:39:2754.1699-3.34388166596016Clb=4.4m/s t=-27.7C h=15.9% 405.10MHz Type=RS41-SG Details on http://radiosondy.info
G4VFL-14U27502022022-12-07 09:39:1154.1722-3.34501163615958Clb=3.3m/s t=-27.2C h=16.1% 405.10MHz Type=RS41-SG Details on http://radiosondy.info
G3HRZU27502022022-12-07 09:39:0354.1733-3.34561163615928Clb=3.3m/s t=-27.1C h=15.5% p=-1.0hPa 405.101 MHz Type=RS41-SG ser=U2750202 Radiosonde
G4VFL-14U27502022022-12-07 09:38:5654.1743-3.34615163635902Clb=4.4m/s t=-26.8C h=15.9% 405.10MHz Type=RS41-SG batt=2.9V Details on http://radiosondy.info
G4VFL-14U27502022022-12-07 09:38:4054.1767-3.3474168635843Clb=3.0m/s t=-26.5C h=16.2% 405.10MHz Type=RS41-SG Details on http://radiosondy.info
G3HRZU27502022022-12-07 09:38:3254.178-3.34797163615814Clb=3.2m/s t=-26.5C h=17.0% p=-1.0hPa 405.101 MHz Type=RS41-SG ser=U2750202 Radiosonde
G4VFL-14U27502022022-12-07 09:38:2554.179-3.34841167705788Clb=3.1m/s t=-26.3C h=17.2% 405.10MHz Type=RS41-SG Details on http://radiosondy.info
G3HRZU27502022022-12-07 09:38:0154.1829-3.35006166695673Clb=5.1m/s t=-25.3C h=14.5% p=-1.0hPa 405.101 MHz Type=RS41-SG ser=U2750202 Radiosonde
G3HRZU27502022022-12-07 09:37:3054.1879-3.35224164655552Clb=4.3m/s t=-24.7C h=13.5% p=-1.0hPa 405.101 MHz Type=RS41-SG ser=U2750202 Radiosonde
G4VFL-14U27502022022-12-07 09:37:1754.1899-3.35325165695504Clb=4.4m/s t=-24.2C h=10.3% 405.10MHz Type=RS41-SG TxPastBurst=8h30m batt=2.7V Details on http://radiosondy.info
G4VFL-14U27502022022-12-07 09:37:0154.1926-3.35454165675445Clb=3.7m/s t=-24.2C h=16.3% 405.10MHz Type=RS41-SG Details on http://radiosondy.info
G3HRZU27502022022-12-07 09:36:5954.1929-3.3547164705437Clb=4.6m/s t=-24.2C h=15.9% p=-1.0hPa 405.101 MHz Type=RS41-SG ser=U2750202 Radiosonde
G4VFL-14U27502022022-12-07 09:36:4554.1951-3.35566169655377Clb=4.9m/s t=-23.8C h=19.2% 405.10MHz Type=RS41-SG Details on http://radiosondy.info
G4VFL-14U27502022022-12-07 09:36:3054.1975-3.35644169655321Clb=3.1m/s t=-23.3C h=15.7% 405.10MHz Type=RS41-SG batt=2.9V Details on http://radiosondy.info
G3HRZU27502022022-12-07 09:36:2854.1978-3.35655167635313Clb=3.0m/s t=-23.3C h=15.0% p=-1.0hPa 405.101 MHz Type=RS41-SG ser=U2750202 Radiosonde
G4VFL-14U27502022022-12-07 09:36:1454.2-3.3574168655262Clb=4.0m/s t=-22.8C h=15.4% 405.10MHz Type=RS41-SG Details on http://radiosondy.info
G4VFL-14U27502022022-12-07 09:35:5854.2025-3.35839168635204Clb=3.0m/s t=-22.2C h=14.0% 405.10MHz Type=RS41-SG Details on http://radiosondy.info
G3HRZU27502022022-12-07 09:35:5754.2027-3.35845168635200Clb=3.9m/s t=-22.2C h=13.3% p=-1.0hPa 405.101 MHz Type=RS41-SG ser=U2750202 Radiosonde
G4VFL-14U27502022022-12-07 09:35:4354.2048-3.35927169635147Clb=2.9m/s t=-21.7C h=12.0% 405.10MHz Type=RS41-SG batt=2.9V Details on http://radiosondy.info
G4VFL-14U27502022022-12-07 09:35:2754.2073-3.36017168635087Clb=4.2m/s t=-21.2C h=10.8% 405.10MHz Type=RS41-SG Details on http://radiosondy.info
G3HRZU27502022022-12-07 09:35:2654.2074-3.36023167615083Clb=3.8m/s t=-273.0C h=-1.0% p=-1.0hPa 405.101 MHz Type=RS41-SG ser=U2750202 Radiosonde
G4VFL-14U27502022022-12-07 09:34:1654.2175-3.36444165634830Clb=3.5m/s t=-19.5C h=10.7% 405.10MHz Type=RS41-SG Details on http://radiosondy.info
G4VFL-14U27502022022-12-07 09:34:0154.2198-3.36549166654776Clb=3.2m/s t=-19.2C h=5.6% 405.10MHz Type=RS41-SG TxPastBurst=8h30m batt=2.9V Details on http://radiosondy.info
G4VFL-14U27502022022-12-07 09:33:4654.2221-3.36684160614719Clb=3.0m/s t=-19.3C h=8.3% 405.10MHz Type=RS41-SG Details on http://radiosondy.info
G4VFL-14U27502022022-12-07 09:33:3054.2244-3.36806165594662Clb=3.0m/s t=-19.3C h=12.8% 405.10MHz Type=RS41-SG Details on http://radiosondy.info
G4VFL-14U27502022022-12-07 09:33:1454.2267-3.36903163654602Clb=4.2m/s t=-20.1C h=57.1% 405.10MHz Type=RS41-SG batt=2.9V Details on http://radiosondy.info
G4VFL-14U27502022022-12-07 09:32:5854.229-3.37074155634543Clb=2.8m/s t=-19.9C h=59.0% 405.10MHz Type=RS41-SG Details on http://radiosondy.info
G4VFL-14U27502022022-12-07 09:32:4254.2313-3.37279153634488Clb=3.4m/s t=-19.5C h=60.4% 405.10MHz Type=RS41-SG Details on http://radiosondy.info
G4VFL-14U27502022022-12-07 09:32:2654.2335-3.37491149614435Clb=4.2m/s t=-19.1C h=70.9% 405.10MHz Type=RS41-SG batt=2.9V Details on http://radiosondy.info
G4VFL-14U27502022022-12-07 09:31:1754.242-3.38333150544197Clb=2.8m/s t=-17.1C h=65.7% 405.10MHz Type=RS41-SG Details on http://radiosondy.info
G4VFL-14U27502022022-12-07 09:31:0054.2439-3.38531151524140Clb=2.7m/s t=-17.0C h=71.9% 405.10MHz Type=RS41-SG Details on http://radiosondy.info
G4VFL-14U27502022022-12-07 09:30:4454.2457-3.38704156504086Clb=2.5m/s t=-16.7C h=76.8% 405.10MHz Type=RS41-SG TxPastBurst=8h30m batt=2.9V Details on http://radiosondy.info
G4VFL-14U27502022022-12-07 09:30:2954.2474-3.3884156434019Clb=5.3m/s t=-16.3C h=78.9% 405.10MHz Type=RS41-SG Details on http://radiosondy.info
G4VFL-14U27502022022-12-07 09:30:1454.2489-3.38942158373965Clb=4.2m/s t=-16.0C h=78.4% 405.10MHz Type=RS41-SG Details on http://radiosondy.info
G4VFL-14U27502022022-12-07 09:29:5854.2503-3.39038160373907Clb=4.1m/s t=-15.6C h=79.1% 405.10MHz Type=RS41-SG batt=2.9V Details on http://radiosondy.info
G4VFL-14U27502022022-12-07 09:29:4154.2517-3.39129159353853Clb=1.9m/s t=-15.2C h=81.8% 405.10MHz Type=RS41-SG Details on http://radiosondy.info
G4VFL-14U27502022022-12-07 09:29:2554.2531-3.39204161393802Clb=4.3m/s t=-14.8C h=79.5% 405.10MHz Type=RS41-SG Details on http://radiosondy.info
G4VFL-14U27502022022-12-07 09:28:1354.2594-3.39478165433573Clb=3.0m/s t=-13.9C h=87.2% 405.10MHz Type=RS41-SG batt=2.9V Details on http://radiosondy.info
G4VFL-14U27502022022-12-07 09:27:5854.261-3.39535172483528Clb=3.8m/s t=-13.6C h=85.3% 405.10MHz Type=RS41-SG Details on http://radiosondy.info
G4VFL-14U27502022022-12-07 09:27:4354.2627-3.39589168503481Clb=3.0m/s t=-13.2C h=83.1% 405.10MHz Type=RS41-SG Details on http://radiosondy.info
G4VFL-14U27502022022-12-07 09:27:2854.2645-3.39663162413437Clb=2.9m/s t=-13.0C h=82.5% 405.10MHz Type=RS41-SG TxPastBurst=8h30m batt=2.9V Details on http://radiosondy.info
G4VFL-14U27502022022-12-07 09:27:1254.266-3.3971166393359Clb=4.3m/s t=-12.4C h=81.9% 405.10MHz Type=RS41-SG Details on http://radiosondy.info
G4VFL-14U27502022022-12-07 09:26:5654.2675-3.39796164393303Clb=4.3m/s t=-12.2C h=81.9% 405.10MHz Type=RS41-SG Details on http://radiosondy.info
G4VFL-14U27502022022-12-07 09:26:4054.2689-3.39883161413248Clb=2.9m/s t=-12.1C h=83.4% 405.10MHz Type=RS41-SG batt=2.9V Details on http://radiosondy.info
G4VFL-14U27502022022-12-07 09:26:2554.2703-3.39989159413195Clb=2.8m/s t=-11.8C h=82.5% 405.10MHz Type=RS41-SG Details on http://radiosondy.info
G4VFL-14U27502022022-12-07 09:25:1554.2757-3.40318174302926Clb=5.8m/s t=-10.5C h=77.4% 405.10MHz Type=RS41-SG Details on http://radiosondy.info
G4VFL-14U27502022022-12-07 09:24:5954.2769-3.40349171282860Clb=3.8m/s t=-10.0C h=74.1% 405.10MHz Type=RS41-SG batt=2.9V Details on http://radiosondy.info
G4VFL-14U27502022022-12-07 09:24:4354.278-3.40378175282802Clb=3.0m/s t=-9.4C h=70.9% 405.10MHz Type=RS41-SG Details on http://radiosondy.info
G4VFL-14U27502022022-12-07 09:24:2754.2791-3.40405172302737Clb=4.2m/s t=-8.8C h=67.9% 405.10MHz Type=RS41-SG Details on http://radiosondy.info
G4VFL-14U27502022022-12-07 09:24:1154.2802-3.40443164282679Clb=3.6m/s t=-8.4C h=67.0% 405.10MHz Type=RS41-SG TxPastBurst=8h30m batt=2.9V Details on http://radiosondy.info
G4VFL-14U27502022022-12-07 09:23:5654.2812-3.4049148242630Clb=3.2m/s t=-7.9C h=60.5% 405.10MHz Type=RS41-SG Details on http://radiosondy.info
G4VFL-14U27502022022-12-07 09:23:4054.2821-3.40554158302552Clb=4.9m/s t=-7.5C h=56.0% 405.10MHz Type=RS41-SG Details on http://radiosondy.info
G4VFL-14U27502022022-12-07 09:23:2454.2833-3.40619178442479Clb=8.1m/s t=-7.1C h=53.7% 405.10MHz Type=RS41-SG batt=2.9V Details on http://radiosondy.info
G4VFL-14U27502022022-12-07 09:21:4754.2935-3.40369193482082Clb=4.6m/s t=-9.1C calibration 94% 405.10MHz Type=RS41-SG Details on http://radiosondy.info
G4VFL-14U27502022022-12-07 09:21:3154.2954-3.40323185442027Clb=2.8m/s t=-11.1C calibration 94% 405.10MHz Type=RS41-SG batt=2.9V Details on http://radiosondy.info
G4VFL-14U27502022022-12-07 09:21:1654.2971-3.40317177431972Clb=3.8m/s t=-10.9C calibration 86% 405.10MHz Type=RS41-SG Details on http://radiosondy.info
G4VFL-14U27502022022-12-07 09:21:0054.2987-3.40337170331907Clb=3.8m/s t=-10.4C calibration 86% 405.10MHz Type=RS41-SG Details on http://radiosondy.info
G4VFL-14U27502022022-12-07 09:20:4554.2999-3.40373177351847Clb=4.1m/s t=-10.0C calibration 74% 405.10MHz Type=RS41-SG batt=2.9V Details on http://radiosondy.info
G4VFL-14U27502022022-12-07 09:20:2954.3013-3.40399155331787Clb=6.0m/s t=-9.6C calibration 72% 405.10MHz Type=RS41-SG Details on http://radiosondy.info
G4VFL-14U27502022022-12-07 09:19:1354.3066-3.40777155281429Clb=3.9m/s t=-6.5C calibration 66% 405.10MHz Type=RS41-SG Details on http://radiosondy.info
G4VFL-14U27502022022-12-07 09:18:5754.3075-3.40893146261361Clb=4.4m/s t=-6.0C calibration 66% 405.10MHz Type=RS41-SG batt=2.9V Details on http://radiosondy.info
G4VFL-14U27502022022-12-07 09:18:4154.3084-3.40945191201289Clb=4.9m/s t=-5.3C calibration 64% 405.10MHz Type=RS41-SG Details on http://radiosondy.info
G4VFL-14U27502022022-12-07 09:18:2654.3092-3.40979181241217Clb=7.1m/s calibration 54% 405.10MHz Type=RS41-SG Details on http://radiosondy.info
G4VFL-14U27502022022-12-07 09:18:1054.31-3.41001182221139Clb=3.5m/s calibration 49% 405.10MHz Type=RS41-SG batt=2.9V Details on http://radiosondy.info
G4VFL-14U27502022022-12-07 09:17:5554.3108-3.40993198261073Clb=1.9m/s calibration 35% 405.10MHz Type=RS41-SG Details on http://radiosondy.info
G4VFL-14U27502022022-12-07 09:17:4054.3117-3.41016150281003Clb=3.5m/s calibration 21% 405.10MHz Type=RS41-SG Details on http://radiosondy.info
G4VFL-14U27502022022-12-07 09:17:2454.3128-3.4103917924925Clb=5.8m/s calibration 7% Type=RS41-SG batt=2.9V Details on http://radiosondy.info